AFR816 LFPG-TFFF
Flight info
| Callsign | AFR816 |
|---|---|
| Flight time | 8h 1m |
| Altitude | 32000 |
| Route | LGL UN491 UPALO UN585 FEJAC DCT REGHI/M083F340 DCT ETIKI DCT 47N020W 44N030W 40N040W/M083F360 37N045W 31N050W 27N052W 22N055W DCT DRDGE/N0485F360 DCT UMAMU UMAMU2V |
| Aircraft | B77W/H-SDE2E3FGHIJ3J5M1P2RWXYZ/LB1D1 |
Departure
| Time | 2026-05-08 13:57 |
|---|---|
| Airport | Charles de Gaulle International Airport (LFPG) |
Arrival
| Time | 2026-05-08 21:59 |
|---|---|
| Airport | Martinique Aimé Césaire International Airport (TFFF) |
| Time | Latitude | Longitude | Altitude | Speed | Heading |
|---|---|---|---|---|---|
| 2026-05-08 12:43 | 49.00329 | 2.59005 | 366 ft | 0 kts | 85° |
| 2026-05-08 13:03 | 49.00328 | 2.58987 | 359 ft | 10 kts | 84° |
| 2026-05-08 13:04 | 49.00329 | 2.59005 | 359 ft | 0 kts | 85° |
| 2026-05-08 13:41 | 49.00328 | 2.58980 | 359 ft | 3 kts | 91° |
| 2026-05-08 13:41 | 49.00329 | 2.58949 | 359 ft | 3 kts | 99° |
| 2026-05-08 13:42 | 49.00334 | 2.58920 | 366 ft | 3 kts | 110° |
| 2026-05-08 13:42 | 49.00342 | 2.58892 | 365 ft | 3 kts | 124° |
| 2026-05-08 13:42 | 49.00354 | 2.58870 | 368 ft | 3 kts | 152° |
| 2026-05-08 13:42 | 49.00366 | 2.58863 | 362 ft | 0 kts | 175° |
| 2026-05-08 13:47 | 49.00363 | 2.58863 | 362 ft | 2 kts | 175° |
| 2026-05-08 13:47 | 49.00323 | 2.58868 | 362 ft | 9 kts | 176° |
| 2026-05-08 13:47 | 49.00261 | 2.58874 | 363 ft | 9 kts | 176° |
| 2026-05-08 13:48 | 49.00199 | 2.58882 | 364 ft | 9 kts | 175° |
| 2026-05-08 13:48 | 49.00136 | 2.58890 | 365 ft | 9 kts | 175° |
| 2026-05-08 13:48 | 49.00074 | 2.58898 | 361 ft | 9 kts | 180° |
| 2026-05-08 13:48 | 49.00040 | 2.58826 | 361 ft | 9 kts | 262° |
| 2026-05-08 13:49 | 49.00034 | 2.58729 | 359 ft | 10 kts | 265° |
| 2026-05-08 13:49 | 49.00027 | 2.58600 | 359 ft | 16 kts | 265° |
| 2026-05-08 13:49 | 49.00018 | 2.58419 | 364 ft | 17 kts | 265° |
| 2026-05-08 13:49 | 49.00009 | 2.58237 | 363 ft | 17 kts | 265° |
| 2026-05-08 13:50 | 48.99999 | 2.58055 | 361 ft | 17 kts | 265° |
| 2026-05-08 13:50 | 48.99988 | 2.57873 | 365 ft | 17 kts | 265° |
| 2026-05-08 13:50 | 48.99978 | 2.57691 | 361 ft | 17 kts | 265° |
| 2026-05-08 13:50 | 48.99968 | 2.57508 | 359 ft | 17 kts | 265° |
| 2026-05-08 13:51 | 48.99959 | 2.57325 | 366 ft | 17 kts | 265° |
| 2026-05-08 13:51 | 48.99949 | 2.57143 | 364 ft | 17 kts | 265° |
| 2026-05-08 13:51 | 48.99939 | 2.56961 | 362 ft | 17 kts | 265° |
| 2026-05-08 13:51 | 48.99929 | 2.56779 | 366 ft | 17 kts | 265° |
| 2026-05-08 13:52 | 48.99919 | 2.56596 | 363 ft | 17 kts | 265° |
| 2026-05-08 13:52 | 48.99910 | 2.56417 | 364 ft | 16 kts | 265° |
| 2026-05-08 13:52 | 48.99904 | 2.56285 | 361 ft | 11 kts | 266° |
| 2026-05-08 13:52 | 48.99898 | 2.56177 | 359 ft | 8 kts | 265° |
| 2026-05-08 13:53 | 48.99897 | 2.56148 | 362 ft | 0 kts | 264° |
| 2026-05-08 13:53 | 48.99896 | 2.56143 | 359 ft | 3 kts | 264° |
| 2026-05-08 13:54 | 48.99892 | 2.56070 | 359 ft | 9 kts | 265° |
| 2026-05-08 13:54 | 48.99891 | 2.55976 | 359 ft | 9 kts | 275° |
| 2026-05-08 13:54 | 48.99900 | 2.55883 | 362 ft | 9 kts | 279° |
| 2026-05-08 13:54 | 48.99875 | 2.55806 | 368 ft | 9 kts | 209° |
| 2026-05-08 13:55 | 48.99814 | 2.55801 | 365 ft | 9 kts | 177° |
| 2026-05-08 13:55 | 48.99752 | 2.55807 | 364 ft | 9 kts | 175° |
| 2026-05-08 13:55 | 48.99628 | 2.55823 | 363 ft | 9 kts | 171° |
| 2026-05-08 13:56 | 48.99604 | 2.55890 | 363 ft | 2 kts | 86° |
| 2026-05-08 13:56 | 48.99604 | 2.55896 | 363 ft | 0 kts | 86° |
| 2026-05-08 13:56 | 48.99604 | 2.55897 | 363 ft | 2 kts | 86° |
| 2026-05-08 13:56 | 48.99611 | 2.56055 | 359 ft | 33 kts | 86° |
| 2026-05-08 13:57 | 48.99651 | 2.56785 | 360 ft | 105 kts | 85° |
| 2026-05-08 13:57 | 48.99727 | 2.58228 | 367 ft | 165 kts | 85° |
| 2026-05-08 13:57 | 48.99833 | 2.60059 | 818 ft | 174 kts | 86° |
| 2026-05-08 13:57 | 48.99927 | 2.61920 | 1489 ft | 178 kts | 85° |
| 2026-05-08 13:58 | 49.00025 | 2.63796 | 2169 ft | 178 kts | 85° |
| 2026-05-08 13:58 | 49.00117 | 2.65685 | 2731 ft | 180 kts | 85° |
| 2026-05-08 13:58 | 49.00211 | 2.67639 | 3047 ft | 187 kts | 85° |
| 2026-05-08 13:58 | 49.00316 | 2.69624 | 3475 ft | 189 kts | 85° |
| 2026-05-08 13:59 | 49.00429 | 2.71614 | 3886 ft | 190 kts | 85° |
| 2026-05-08 13:59 | 49.00548 | 2.73695 | 4074 ft | 205 kts | 85° |
| 2026-05-08 13:59 | 49.00667 | 2.75919 | 4296 ft | 219 kts | 85° |
| 2026-05-08 13:59 | 49.00718 | 2.78308 | 4555 ft | 233 kts | 96° |
| 2026-05-08 14:00 | 49.00455 | 2.80779 | 4931 ft | 240 kts | 99° |
| 2026-05-08 14:00 | 49.00164 | 2.83351 | 5273 ft | 254 kts | 99° |
| 2026-05-08 14:00 | 48.99863 | 2.86073 | 5736 ft | 264 kts | 99° |
| 2026-05-08 14:00 | 48.99560 | 2.88852 | 6292 ft | 271 kts | 99° |
| 2026-05-08 14:01 | 48.99254 | 2.91716 | 6885 ft | 276 kts | 99° |
| 2026-05-08 14:01 | 48.98948 | 2.94623 | 7478 ft | 280 kts | 99° |
| 2026-05-08 14:01 | 48.98571 | 2.97515 | 8088 ft | 278 kts | 114° |
| 2026-05-08 14:01 | 48.97424 | 2.99874 | 8537 ft | 283 kts | 146° |
| 2026-05-08 14:02 | 48.95632 | 3.00966 | 9071 ft | 282 kts | 176° |
| 2026-05-08 14:02 | 48.93699 | 3.00657 | 9714 ft | 280 kts | 200° |
| 2026-05-08 14:02 | 48.92002 | 2.99228 | 10323 ft | 280 kts | 223° |
| 2026-05-08 14:02 | 48.90809 | 2.96833 | 10584 ft | 295 kts | 246° |
| 2026-05-08 14:03 | 48.90144 | 2.93778 | 10738 ft | 313 kts | 253° |
| 2026-05-08 14:03 | 48.89557 | 2.90519 | 10910 ft | 334 kts | 254° |
| 2026-05-08 14:03 | 48.88936 | 2.86988 | 11107 ft | 354 kts | 254° |
| 2026-05-08 14:03 | 48.88285 | 2.83307 | 11643 ft | 365 kts | 254° |
| 2026-05-08 14:04 | 48.87611 | 2.79548 | 12383 ft | 370 kts | 254° |
| 2026-05-08 14:04 | 48.86923 | 2.75770 | 13267 ft | 373 kts | 253° |
| 2026-05-08 14:04 | 48.86220 | 2.71954 | 14124 ft | 375 kts | 253° |
| 2026-05-08 14:04 | 48.85519 | 2.68186 | 14876 ft | 379 kts | 253° |
| 2026-05-08 14:05 | 48.84797 | 2.64320 | 15622 ft | 383 kts | 253° |
| 2026-05-08 14:05 | 48.84063 | 2.60412 | 16355 ft | 387 kts | 253° |
| 2026-05-08 14:05 | 48.83320 | 2.56463 | 17077 ft | 391 kts | 253° |
| 2026-05-08 14:05 | 48.82569 | 2.52474 | 17819 ft | 395 kts | 253° |
| 2026-05-08 14:06 | 48.81810 | 2.48443 | 18539 ft | 399 kts | 253° |
| 2026-05-08 14:06 | 48.81161 | 2.44343 | 19078 ft | 401 kts | 263° |
| 2026-05-08 14:06 | 48.81073 | 2.40153 | 19591 ft | 407 kts | 271° |
| 2026-05-08 14:06 | 48.81264 | 2.35845 | 20298 ft | 409 kts | 274° |
| 2026-05-08 14:07 | 48.81513 | 2.31543 | 20979 ft | 410 kts | 274° |
| 2026-05-08 14:07 | 48.81735 | 2.27214 | 21648 ft | 412 kts | 274° |
| 2026-05-08 14:07 | 48.81909 | 2.22860 | 22262 ft | 416 kts | 273° |
| 2026-05-08 14:07 | 48.82041 | 2.18448 | 22863 ft | 419 kts | 272° |
| 2026-05-08 14:08 | 48.82140 | 2.14011 | 23537 ft | 420 kts | 274° |
| 2026-05-08 14:08 | 48.82219 | 2.09585 | 24160 ft | 421 kts | 274° |
| 2026-05-08 14:08 | 48.82289 | 2.05126 | 24658 ft | 423 kts | 274° |
| 2026-05-08 14:08 | 48.82353 | 2.00649 | 25112 ft | 426 kts | 274° |
| 2026-05-08 14:09 | 48.82414 | 1.96196 | 25552 ft | 429 kts | 274° |
| 2026-05-08 14:09 | 48.82474 | 1.91652 | 26015 ft | 432 kts | 274° |
| 2026-05-08 14:09 | 48.82534 | 1.87085 | 26471 ft | 434 kts | 274° |
| 2026-05-08 14:09 | 48.82592 | 1.82488 | 26915 ft | 436 kts | 274° |
| 2026-05-08 14:10 | 48.82650 | 1.77879 | 27350 ft | 439 kts | 274° |
| 2026-05-08 14:10 | 48.82706 | 1.73228 | 27747 ft | 441 kts | 274° |
| 2026-05-08 14:10 | 48.82761 | 1.68556 | 28134 ft | 444 kts | 274° |
| 2026-05-08 14:10 | 48.82814 | 1.63851 | 28506 ft | 447 kts | 274° |
| 2026-05-08 14:11 | 48.82866 | 1.59131 | 28857 ft | 449 kts | 274° |
| 2026-05-08 14:11 | 48.82916 | 1.54366 | 29193 ft | 452 kts | 274° |
| 2026-05-08 14:11 | 48.82948 | 1.51200 | 29409 ft | 454 kts | 274° |
| 2026-05-08 14:11 | 48.83009 | 1.44839 | 29971 ft | 453 kts | 274° |
| 2026-05-08 14:12 | 48.83053 | 1.40056 | 30419 ft | 451 kts | 274° |
| 2026-05-08 14:12 | 48.83080 | 1.36884 | 30725 ft | 450 kts | 274° |
| 2026-05-08 14:12 | 48.83120 | 1.32147 | 31181 ft | 447 kts | 274° |
| 2026-05-08 14:12 | 48.83159 | 1.27433 | 31536 ft | 447 kts | 273° |
| 2026-05-08 14:13 | 48.83196 | 1.22724 | 31834 ft | 447 kts | 273° |
| 2026-05-08 14:13 | 48.83232 | 1.17991 | 31989 ft | 451 kts | 273° |
| 2026-05-08 14:13 | 48.83265 | 1.13280 | 32062 ft | 451 kts | 273° |
| 2026-05-08 14:14 | 48.83324 | 1.03781 | 32037 ft | 447 kts | 272° |
| 2026-05-08 14:14 | 48.83376 | 0.94405 | 32039 ft | 446 kts | 272° |
| 2026-05-08 14:15 | 48.83421 | 0.85004 | 32018 ft | 446 kts | 272° |
| 2026-05-08 14:15 | 48.83458 | 0.75576 | 32033 ft | 447 kts | 272° |
| 2026-05-08 14:16 | 48.83487 | 0.66122 | 32029 ft | 449 kts | 272° |
| 2026-05-08 14:16 | 48.83510 | 0.56620 | 32029 ft | 450 kts | 272° |
| 2026-05-08 14:17 | 48.83541 | 0.47155 | 32030 ft | 450 kts | 272° |
| 2026-05-08 14:17 | 48.83605 | 0.37627 | 32020 ft | 451 kts | 272° |
| 2026-05-08 14:18 | 48.83661 | 0.28139 | 32037 ft | 452 kts | 272° |
| 2026-05-08 14:18 | 48.83705 | 0.18591 | 32027 ft | 452 kts | 271° |
| 2026-05-08 14:19 | 48.83740 | 0.09021 | 32024 ft | 452 kts | 271° |
| 2026-05-08 14:19 | 48.83766 | -0.00496 | 32014 ft | 452 kts | 271° |
| 2026-05-08 14:20 | 48.83786 | -0.09972 | 32012 ft | 452 kts | 271° |
| 2026-05-08 14:20 | 48.83798 | -0.19523 | 32014 ft | 452 kts | 271° |
| 2026-05-08 14:21 | 48.83975 | -0.29071 | 32010 ft | 452 kts | 275° |
| 2026-05-08 14:21 | 48.84504 | -0.38582 | 32012 ft | 452 kts | 275° |
| 2026-05-08 14:22 | 48.85022 | -0.48054 | 32010 ft | 453 kts | 275° |
| 2026-05-08 14:22 | 48.85523 | -0.57600 | 32010 ft | 453 kts | 275° |
| 2026-05-08 14:23 | 48.86011 | -0.67161 | 32010 ft | 453 kts | 275° |
| 2026-05-08 14:23 | 48.86489 | -0.76702 | 32010 ft | 452 kts | 275° |
| 2026-05-08 14:24 | 48.86960 | -0.86236 | 32012 ft | 452 kts | 275° |
| 2026-05-08 14:24 | 48.87421 | -0.95726 | 32005 ft | 453 kts | 274° |
| 2026-05-08 14:25 | 48.87877 | -1.05295 | 32009 ft | 453 kts | 274° |
| 2026-05-08 14:25 | 48.88323 | -1.14816 | 32010 ft | 454 kts | 274° |
| 2026-05-08 14:26 | 48.88764 | -1.24402 | 32006 ft | 454 kts | 274° |
| 2026-05-08 14:26 | 48.89199 | -1.34006 | 32005 ft | 455 kts | 274° |
| 2026-05-08 14:27 | 48.89626 | -1.43614 | 32007 ft | 456 kts | 273° |
| 2026-05-08 14:27 | 48.90047 | -1.53242 | 32004 ft | 457 kts | 273° |
| 2026-05-08 14:28 | 48.90469 | -1.62827 | 32002 ft | 457 kts | 273° |
| 2026-05-08 14:28 | 48.90735 | -1.72508 | 32004 ft | 457 kts | 267° |
| 2026-05-08 14:29 | 48.89969 | -1.82012 | 32011 ft | 457 kts | 257° |
| 2026-05-08 14:29 | 48.88431 | -1.91401 | 31998 ft | 457 kts | 256° |
| 2026-05-08 14:30 | 48.86880 | -2.00782 | 31997 ft | 457 kts | 256° |
| 2026-05-08 14:30 | 48.85358 | -2.10097 | 31998 ft | 457 kts | 256° |
| 2026-05-08 14:31 | 48.83824 | -2.19493 | 32006 ft | 457 kts | 256° |
| 2026-05-08 14:31 | 48.82286 | -2.28867 | 31995 ft | 458 kts | 255° |
| 2026-05-08 14:32 | 48.79978 | -2.42829 | 32000 ft | 458 kts | 255° |
| 2026-05-08 14:32 | 48.78420 | -2.52197 | 31989 ft | 458 kts | 255° |
| 2026-05-08 14:33 | 48.77023 | -2.61616 | 31995 ft | 458 kts | 259° |
| 2026-05-08 14:33 | 48.75908 | -2.71144 | 31991 ft | 458 kts | 259° |
| 2026-05-08 14:34 | 48.74799 | -2.80614 | 31995 ft | 459 kts | 258° |
| 2026-05-08 14:34 | 48.73663 | -2.90139 | 31995 ft | 459 kts | 258° |
| 2026-05-08 14:35 | 48.72511 | -2.99672 | 31998 ft | 460 kts | 258° |
| 2026-05-08 14:35 | 48.71348 | -3.09214 | 32005 ft | 460 kts | 258° |
| 2026-05-08 14:36 | 48.70183 | -3.18700 | 31989 ft | 460 kts | 258° |
| 2026-05-08 14:36 | 48.69003 | -3.28245 | 31994 ft | 460 kts | 258° |
| 2026-05-08 14:37 | 48.67817 | -3.37776 | 31995 ft | 460 kts | 258° |
| 2026-05-08 14:37 | 48.66635 | -3.47206 | 31996 ft | 460 kts | 258° |
| 2026-05-08 14:38 | 48.65432 | -3.56734 | 31993 ft | 461 kts | 257° |
| 2026-05-08 14:38 | 48.64219 | -3.66273 | 31989 ft | 461 kts | 257° |
| 2026-05-08 14:39 | 48.63006 | -3.75747 | 31967 ft | 461 kts | 257° |
| 2026-05-08 14:39 | 48.61776 | -3.85291 | 31967 ft | 461 kts | 257° |
| 2026-05-08 14:40 | 48.60540 | -3.94810 | 31968 ft | 462 kts | 257° |
| 2026-05-08 14:40 | 48.59296 | -4.04331 | 31969 ft | 462 kts | 257° |
| 2026-05-08 14:41 | 48.58050 | -4.13802 | 31968 ft | 462 kts | 257° |
| 2026-05-08 14:41 | 48.56787 | -4.23336 | 31963 ft | 463 kts | 256° |
| 2026-05-08 14:42 | 48.55513 | -4.32898 | 31968 ft | 463 kts | 256° |
| 2026-05-08 14:42 | 48.54236 | -4.42407 | 31969 ft | 465 kts | 256° |
| 2026-05-08 14:43 | 48.52941 | -4.51988 | 31960 ft | 465 kts | 256° |
| 2026-05-08 14:43 | 48.51643 | -4.61530 | 31962 ft | 466 kts | 256° |
| 2026-05-08 14:44 | 48.50330 | -4.71121 | 31959 ft | 466 kts | 256° |
| 2026-05-08 14:44 | 48.49019 | -4.80634 | 31958 ft | 465 kts | 256° |
| 2026-05-08 14:45 | 48.47694 | -4.90184 | 31963 ft | 465 kts | 256° |
| 2026-05-08 14:45 | 48.46366 | -4.99692 | 31962 ft | 465 kts | 256° |
| 2026-05-08 14:46 | 48.45027 | -5.09220 | 31964 ft | 465 kts | 255° |
| 2026-05-08 14:46 | 48.43679 | -5.18751 | 31971 ft | 465 kts | 255° |
| 2026-05-08 14:47 | 48.42330 | -5.28233 | 31964 ft | 465 kts | 255° |
| 2026-05-08 14:47 | 48.40962 | -5.37783 | 31963 ft | 466 kts | 255° |
| 2026-05-08 14:48 | 48.39585 | -5.47337 | 31962 ft | 466 kts | 255° |
| 2026-05-08 14:48 | 48.38207 | -5.56839 | 31962 ft | 467 kts | 255° |
| 2026-05-08 14:49 | 48.36812 | -5.66400 | 31972 ft | 467 kts | 254° |
| 2026-05-08 14:49 | 48.35408 | -5.75955 | 31964 ft | 468 kts | 254° |
| 2026-05-08 14:50 | 48.34003 | -5.85468 | 31958 ft | 468 kts | 254° |
| 2026-05-08 14:50 | 48.32582 | -5.95026 | 31953 ft | 468 kts | 254° |
| 2026-05-08 14:51 | 48.31154 | -6.04575 | 31968 ft | 468 kts | 254° |
| 2026-05-08 14:51 | 48.29724 | -6.14077 | 31958 ft | 469 kts | 253° |
| 2026-05-08 14:52 | 48.27548 | -6.28425 | 31948 ft | 469 kts | 253° |
| 2026-05-08 14:53 | 48.26089 | -6.37973 | 31948 ft | 470 kts | 253° |
| 2026-05-08 14:53 | 48.24629 | -6.47475 | 31952 ft | 470 kts | 253° |
| 2026-05-08 14:54 | 48.23147 | -6.57059 | 31944 ft | 471 kts | 253° |
| 2026-05-08 14:54 | 48.21654 | -6.66662 | 31946 ft | 472 kts | 253° |
| 2026-05-08 14:55 | 48.20164 | -6.76187 | 31947 ft | 472 kts | 253° |
| 2026-05-08 14:55 | 48.18652 | -6.85796 | 31953 ft | 472 kts | 253° |
| 2026-05-08 14:56 | 48.17143 | -6.95332 | 31943 ft | 473 kts | 253° |
| 2026-05-08 14:56 | 48.15615 | -7.04930 | 31938 ft | 472 kts | 252° |
| 2026-05-08 14:57 | 48.14338 | -7.12906 | 31936 ft | 472 kts | 252° |
| 2026-05-08 14:57 | 48.12808 | -7.22415 | 31935 ft | 472 kts | 252° |
| 2026-05-08 14:58 | 48.11263 | -7.31965 | 31944 ft | 472 kts | 252° |
| 2026-05-08 14:58 | 48.09709 | -7.41513 | 31930 ft | 471 kts | 252° |
| 2026-05-08 14:59 | 48.08151 | -7.51034 | 31930 ft | 471 kts | 252° |
| 2026-05-08 14:59 | 48.05815 | -7.65207 | 31929 ft | 471 kts | 252° |
| 2026-05-08 15:00 | 48.04237 | -7.74714 | 31930 ft | 472 kts | 252° |
| 2026-05-08 15:00 | 48.02646 | -7.84251 | 31924 ft | 473 kts | 252° |
| 2026-05-08 15:01 | 48.01049 | -7.93778 | 31923 ft | 473 kts | 252° |
| 2026-05-08 15:01 | 47.99982 | -8.03549 | 31935 ft | 481 kts | 263° |
| 2026-05-08 15:02 | 47.99931 | -8.08561 | 32160 ft | 485 kts | 267° |
| 2026-05-08 15:02 | 47.99972 | -8.13546 | 32490 ft | 484 kts | 267° |
| 2026-05-08 15:02 | 48.00010 | -8.18552 | 32845 ft | 483 kts | 266° |
| 2026-05-08 15:02 | 48.00038 | -8.23557 | 33216 ft | 481 kts | 266° |
| 2026-05-08 15:03 | 48.00053 | -8.28559 | 33573 ft | 480 kts | 266° |
| 2026-05-08 15:03 | 48.00060 | -8.33526 | 33833 ft | 481 kts | 266° |
| 2026-05-08 15:03 | 48.00056 | -8.43512 | 33905 ft | 484 kts | 266° |
| 2026-05-08 15:04 | 48.00048 | -8.53540 | 33931 ft | 480 kts | 265° |
| 2026-05-08 15:04 | 48.00030 | -8.63528 | 33921 ft | 481 kts | 265° |
| 2026-05-08 15:05 | 48.00005 | -8.73538 | 33915 ft | 483 kts | 265° |
| 2026-05-08 15:05 | 47.99732 | -8.83498 | 33915 ft | 482 kts | 262° |
| 2026-05-08 15:06 | 47.99302 | -8.93493 | 33910 ft | 482 kts | 262° |
| 2026-05-08 15:06 | 47.98864 | -9.03475 | 33906 ft | 482 kts | 262° |
| 2026-05-08 15:07 | 47.98438 | -9.13465 | 33904 ft | 482 kts | 262° |
| 2026-05-08 15:07 | 47.98015 | -9.23388 | 33902 ft | 481 kts | 262° |
| 2026-05-08 15:08 | 47.97656 | -9.31684 | 33896 ft | 481 kts | 262° |
| 2026-05-08 15:08 | 47.97143 | -9.43312 | 33911 ft | 481 kts | 261° |
| 2026-05-08 15:09 | 47.96696 | -9.53205 | 33895 ft | 481 kts | 261° |
| 2026-05-08 15:09 | 47.96237 | -9.63164 | 33884 ft | 480 kts | 261° |
| 2026-05-08 15:10 | 47.95771 | -9.73077 | 33887 ft | 480 kts | 261° |
| 2026-05-08 15:10 | 47.95295 | -9.83042 | 33888 ft | 481 kts | 261° |
| 2026-05-08 15:11 | 47.94809 | -9.93014 | 33891 ft | 482 kts | 261° |
| 2026-05-08 15:11 | 47.94316 | -10.02959 | 33888 ft | 483 kts | 261° |
| 2026-05-08 15:12 | 47.93811 | -10.12968 | 33884 ft | 484 kts | 261° |
| 2026-05-08 15:12 | 47.93297 | -10.22993 | 33903 ft | 485 kts | 260° |
| 2026-05-08 15:13 | 47.92772 | -10.33039 | 33880 ft | 486 kts | 260° |
| 2026-05-08 15:13 | 47.92238 | -10.43094 | 33881 ft | 486 kts | 260° |
| 2026-05-08 15:14 | 47.91696 | -10.53158 | 33880 ft | 486 kts | 260° |
| 2026-05-08 15:14 | 47.91148 | -10.63144 | 33879 ft | 486 kts | 260° |
| 2026-05-08 15:15 | 47.90589 | -10.73191 | 33884 ft | 486 kts | 259° |
| 2026-05-08 15:15 | 47.90021 | -10.83222 | 33872 ft | 485 kts | 259° |
| 2026-05-08 15:16 | 47.89449 | -10.93165 | 33867 ft | 483 kts | 259° |
| 2026-05-08 15:16 | 47.88867 | -11.03141 | 33870 ft | 482 kts | 259° |
| 2026-05-08 15:17 | 47.88279 | -11.13075 | 33873 ft | 482 kts | 259° |
| 2026-05-08 15:17 | 47.87684 | -11.22966 | 33867 ft | 481 kts | 259° |
| 2026-05-08 15:18 | 47.87078 | -11.32898 | 33870 ft | 481 kts | 258° |
| 2026-05-08 15:18 | 47.86461 | -11.42851 | 33863 ft | 481 kts | 258° |
| 2026-05-08 15:19 | 47.85838 | -11.52780 | 33869 ft | 482 kts | 258° |
| 2026-05-08 15:19 | 47.85204 | -11.62746 | 33864 ft | 483 kts | 258° |
| 2026-05-08 15:20 | 47.84565 | -11.72652 | 33859 ft | 483 kts | 258° |
| 2026-05-08 15:20 | 47.83915 | -11.82600 | 33858 ft | 482 kts | 258° |
| 2026-05-08 15:21 | 47.83255 | -11.92555 | 33868 ft | 483 kts | 258° |
| 2026-05-08 15:21 | 47.82589 | -12.02463 | 33856 ft | 483 kts | 258° |
| 2026-05-08 15:22 | 47.81911 | -12.12426 | 33857 ft | 484 kts | 258° |
| 2026-05-08 15:22 | 47.81223 | -12.22415 | 33854 ft | 484 kts | 258° |
| 2026-05-08 15:23 | 47.80532 | -12.32318 | 33874 ft | 484 kts | 258° |
| 2026-05-08 15:23 | 47.79827 | -12.42302 | 33864 ft | 485 kts | 257° |
| 2026-05-08 15:24 | 47.79113 | -12.52274 | 33851 ft | 485 kts | 257° |
| 2026-05-08 15:24 | 47.78393 | -12.62206 | 33860 ft | 485 kts | 257° |
| 2026-05-08 15:25 | 47.77662 | -12.72176 | 33862 ft | 484 kts | 257° |
| 2026-05-08 15:25 | 47.76922 | -12.82151 | 33869 ft | 485 kts | 257° |
| 2026-05-08 15:26 | 47.76178 | -12.92058 | 33869 ft | 484 kts | 257° |
| 2026-05-08 15:26 | 47.75420 | -13.02030 | 33862 ft | 484 kts | 257° |
| 2026-05-08 15:27 | 47.74656 | -13.11973 | 33863 ft | 484 kts | 257° |
| 2026-05-08 15:27 | 47.73883 | -13.21918 | 33868 ft | 484 kts | 257° |
| 2026-05-08 15:28 | 47.73105 | -13.31799 | 33872 ft | 484 kts | 257° |
| 2026-05-08 15:28 | 47.72314 | -13.41742 | 33873 ft | 484 kts | 257° |
| 2026-05-08 15:29 | 47.71520 | -13.51617 | 33874 ft | 484 kts | 257° |
| 2026-05-08 15:29 | 47.70712 | -13.61556 | 33889 ft | 485 kts | 257° |
| 2026-05-08 15:30 | 47.69894 | -13.71508 | 33879 ft | 485 kts | 257° |
| 2026-05-08 15:30 | 47.69071 | -13.81409 | 33881 ft | 485 kts | 257° |
| 2026-05-08 15:31 | 47.68243 | -13.91274 | 33881 ft | 485 kts | 257° |
| 2026-05-08 15:31 | 47.67399 | -14.01225 | 33896 ft | 485 kts | 257° |
| 2026-05-08 15:32 | 47.66550 | -14.11117 | 33894 ft | 486 kts | 257° |
| 2026-05-08 15:32 | 47.65688 | -14.21076 | 33890 ft | 486 kts | 257° |
| 2026-05-08 15:33 | 47.64818 | -14.31010 | 33889 ft | 485 kts | 257° |
| 2026-05-08 15:33 | 47.63938 | -14.40962 | 33913 ft | 485 kts | 257° |
| 2026-05-08 15:34 | 47.63058 | -14.50809 | 33890 ft | 485 kts | 257° |
| 2026-05-08 15:34 | 47.62162 | -14.60746 | 33897 ft | 485 kts | 257° |
| 2026-05-08 15:35 | 47.61257 | -14.70682 | 33881 ft | 485 kts | 257° |
| 2026-05-08 15:35 | 47.60353 | -14.80512 | 33889 ft | 485 kts | 256° |
| 2026-05-08 15:36 | 47.59593 | -14.88695 | 33905 ft | 485 kts | 257° |
| 2026-05-08 15:36 | 47.58514 | -15.00216 | 33901 ft | 485 kts | 257° |
| 2026-05-08 15:37 | 47.57578 | -15.10107 | 33902 ft | 485 kts | 257° |
| 2026-05-08 15:37 | 47.56632 | -15.20008 | 33901 ft | 484 kts | 257° |
| 2026-05-08 15:38 | 47.55683 | -15.29837 | 33912 ft | 485 kts | 257° |
| 2026-05-08 15:38 | 47.54715 | -15.39785 | 33910 ft | 485 kts | 257° |
| 2026-05-08 15:39 | 47.53751 | -15.49606 | 33903 ft | 485 kts | 257° |
| 2026-05-08 15:39 | 47.52768 | -15.59518 | 33900 ft | 485 kts | 257° |
| 2026-05-08 15:40 | 47.51788 | -15.69317 | 33905 ft | 485 kts | 257° |
| 2026-05-08 15:40 | 47.50962 | -15.77507 | 33900 ft | 484 kts | 257° |
| 2026-05-08 15:41 | 47.49960 | -15.87368 | 33901 ft | 484 kts | 257° |
| 2026-05-08 15:41 | 47.48951 | -15.97206 | 33901 ft | 483 kts | 257° |
| 2026-05-08 15:42 | 47.47939 | -16.06988 | 33918 ft | 483 kts | 257° |
| 2026-05-08 15:42 | 47.46913 | -16.16815 | 33903 ft | 483 kts | 257° |
| 2026-05-08 15:43 | 47.45878 | -16.26654 | 33901 ft | 483 kts | 257° |
| 2026-05-08 15:43 | 47.44845 | -16.36393 | 33905 ft | 482 kts | 257° |
| 2026-05-08 15:44 | 47.43795 | -16.46202 | 33927 ft | 483 kts | 258° |
| 2026-05-08 15:44 | 47.42735 | -16.56012 | 33906 ft | 483 kts | 258° |
| 2026-05-08 15:45 | 47.41669 | -16.65813 | 33900 ft | 483 kts | 258° |
| 2026-05-08 15:45 | 47.40601 | -16.75556 | 33902 ft | 483 kts | 257° |
| 2026-05-08 15:46 | 47.39515 | -16.85370 | 33907 ft | 483 kts | 257° |
| 2026-05-08 15:46 | 47.38429 | -16.95110 | 33901 ft | 483 kts | 258° |
| 2026-05-08 15:47 | 47.37329 | -17.04899 | 33904 ft | 482 kts | 257° |
| 2026-05-08 15:47 | 47.36222 | -17.14672 | 33903 ft | 482 kts | 257° |
| 2026-05-08 15:48 | 47.34554 | -17.29251 | 33904 ft | 480 kts | 257° |
| 2026-05-08 15:49 | 47.33437 | -17.38922 | 33905 ft | 480 kts | 257° |
| 2026-05-08 15:49 | 47.32305 | -17.48642 | 33904 ft | 480 kts | 257° |
| 2026-05-08 15:50 | 47.31173 | -17.58288 | 33904 ft | 480 kts | 257° |
| 2026-05-08 15:50 | 47.30025 | -17.68003 | 33921 ft | 480 kts | 257° |
| 2026-05-08 15:51 | 47.28868 | -17.77715 | 33904 ft | 479 kts | 257° |
| 2026-05-08 15:51 | 47.27716 | -17.87323 | 33898 ft | 478 kts | 257° |
| 2026-05-08 15:52 | 47.26550 | -17.96966 | 33901 ft | 477 kts | 257° |
| 2026-05-08 15:52 | 47.25385 | -18.06535 | 33898 ft | 477 kts | 257° |
| 2026-05-08 15:53 | 47.24204 | -18.16158 | 33909 ft | 476 kts | 257° |
| 2026-05-08 15:53 | 47.23018 | -18.25760 | 33902 ft | 476 kts | 257° |
| 2026-05-08 15:54 | 47.21830 | -18.35309 | 33901 ft | 476 kts | 257° |
| 2026-05-08 15:54 | 47.20630 | -18.44880 | 33902 ft | 476 kts | 257° |
| 2026-05-08 15:55 | 47.19421 | -18.54463 | 33908 ft | 476 kts | 257° |
| 2026-05-08 15:55 | 47.17596 | -18.68797 | 33901 ft | 477 kts | 257° |
| 2026-05-08 15:56 | 47.16360 | -18.78414 | 33897 ft | 477 kts | 257° |
| 2026-05-08 15:56 | 47.15128 | -18.87941 | 33910 ft | 478 kts | 257° |
| 2026-05-08 15:57 | 47.13878 | -18.97542 | 33906 ft | 479 kts | 257° |
| 2026-05-08 15:57 | 47.12626 | -19.07089 | 33900 ft | 479 kts | 257° |
| 2026-05-08 15:58 | 47.11356 | -19.16713 | 33908 ft | 479 kts | 257° |
| 2026-05-08 15:58 | 47.10080 | -19.26313 | 33902 ft | 479 kts | 257° |
| 2026-05-08 15:59 | 47.08792 | -19.35931 | 33909 ft | 480 kts | 257° |
| 2026-05-08 15:59 | 47.07502 | -19.45509 | 33908 ft | 481 kts | 257° |
| 2026-05-08 16:00 | 47.06198 | -19.55129 | 33900 ft | 481 kts | 257° |
| 2026-05-08 16:00 | 47.04883 | -19.64760 | 33904 ft | 481 kts | 257° |
| 2026-05-08 16:01 | 47.03566 | -19.74340 | 33910 ft | 482 kts | 257° |
| 2026-05-08 16:01 | 47.02234 | -19.83979 | 33897 ft | 482 kts | 257° |
| 2026-05-08 16:02 | 47.00898 | -19.93585 | 33896 ft | 482 kts | 257° |
| 2026-05-08 16:02 | 46.99335 | -20.03126 | 33888 ft | 480 kts | 249° |
| 2026-05-08 16:03 | 46.97086 | -20.12289 | 33909 ft | 481 kts | 249° |
| 2026-05-08 16:03 | 46.94783 | -20.21506 | 33887 ft | 483 kts | 249° |
| 2026-05-08 16:04 | 46.92491 | -20.30763 | 33898 ft | 483 kts | 249° |
| 2026-05-08 16:04 | 46.90232 | -20.39936 | 33899 ft | 483 kts | 249° |
| 2026-05-08 16:05 | 46.87948 | -20.49191 | 33893 ft | 484 kts | 249° |
| 2026-05-08 16:05 | 46.85664 | -20.58409 | 33897 ft | 485 kts | 249° |
| 2026-05-08 16:06 | 46.83353 | -20.67691 | 33894 ft | 486 kts | 249° |
| 2026-05-08 16:06 | 46.81046 | -20.76920 | 33895 ft | 486 kts | 249° |
| 2026-05-08 16:07 | 46.78711 | -20.86217 | 33885 ft | 487 kts | 250° |
| 2026-05-08 16:07 | 46.76371 | -20.95499 | 33892 ft | 488 kts | 250° |
| 2026-05-08 16:08 | 46.74023 | -21.04777 | 33890 ft | 488 kts | 250° |
| 2026-05-08 16:08 | 46.71673 | -21.14024 | 33892 ft | 488 kts | 250° |
| 2026-05-08 16:09 | 46.69700 | -21.21760 | 33890 ft | 488 kts | 250° |
| 2026-05-08 16:09 | 46.66938 | -21.32545 | 33890 ft | 488 kts | 249° |
| 2026-05-08 16:10 | 46.64546 | -21.41841 | 33885 ft | 488 kts | 249° |
| 2026-05-08 16:10 | 46.62174 | -21.51028 | 33888 ft | 488 kts | 249° |
| 2026-05-08 16:11 | 46.59775 | -21.60275 | 33888 ft | 488 kts | 250° |
| 2026-05-08 16:11 | 46.57454 | -21.69193 | 33888 ft | 489 kts | 250° |
| 2026-05-08 16:12 | 46.55028 | -21.78477 | 33889 ft | 489 kts | 250° |
| 2026-05-08 16:12 | 46.52600 | -21.87733 | 33893 ft | 490 kts | 250° |
| 2026-05-08 16:13 | 46.50161 | -21.96989 | 33897 ft | 491 kts | 251° |
| 2026-05-08 16:13 | 46.47707 | -22.06270 | 33905 ft | 493 kts | 251° |
| 2026-05-08 16:14 | 46.45256 | -22.15499 | 33903 ft | 494 kts | 251° |
| 2026-05-08 16:14 | 46.42778 | -22.24794 | 33896 ft | 495 kts | 251° |
| 2026-05-08 16:15 | 46.40288 | -22.34097 | 33907 ft | 495 kts | 252° |
| 2026-05-08 16:15 | 46.37786 | -22.43414 | 33923 ft | 495 kts | 251° |
| 2026-05-08 16:16 | 46.35277 | -22.52715 | 33931 ft | 496 kts | 251° |
| 2026-05-08 16:16 | 46.32777 | -22.61945 | 33921 ft | 496 kts | 251° |
| 2026-05-08 16:17 | 46.30661 | -22.69729 | 33932 ft | 495 kts | 252° |
| 2026-05-08 16:17 | 46.27721 | -22.80508 | 33947 ft | 495 kts | 252° |
| 2026-05-08 16:18 | 46.25185 | -22.89764 | 33947 ft | 494 kts | 252° |
| 2026-05-08 16:18 | 46.22679 | -22.98874 | 33947 ft | 494 kts | 252° |
| 2026-05-08 16:19 | 46.20134 | -23.08094 | 33951 ft | 493 kts | 251° |
| 2026-05-08 16:19 | 46.17583 | -23.17298 | 33970 ft | 493 kts | 252° |
| 2026-05-08 16:20 | 46.15039 | -23.26444 | 33975 ft | 494 kts | 252° |
| 2026-05-08 16:20 | 46.12469 | -23.35650 | 33961 ft | 494 kts | 252° |
| 2026-05-08 16:21 | 46.09907 | -23.44790 | 33985 ft | 494 kts | 252° |
| 2026-05-08 16:21 | 46.07324 | -23.53971 | 33987 ft | 494 kts | 252° |
| 2026-05-08 16:22 | 46.05185 | -23.61545 | 33990 ft | 494 kts | 252° |
| 2026-05-08 16:22 | 46.02162 | -23.72210 | 34004 ft | 494 kts | 252° |
| 2026-05-08 16:23 | 45.99559 | -23.81361 | 34005 ft | 494 kts | 252° |
| 2026-05-08 16:23 | 45.96941 | -23.90525 | 34006 ft | 494 kts | 252° |
| 2026-05-08 16:24 | 45.94335 | -23.99616 | 33984 ft | 494 kts | 252° |
| 2026-05-08 16:24 | 45.91707 | -24.08747 | 34022 ft | 494 kts | 252° |
| 2026-05-08 16:25 | 45.89514 | -24.16343 | 34026 ft | 495 kts | 252° |
| 2026-05-08 16:25 | 45.86439 | -24.26955 | 34030 ft | 495 kts | 252° |
| 2026-05-08 16:26 | 45.84213 | -24.34608 | 34005 ft | 495 kts | 253° |
| 2026-05-08 16:26 | 45.81571 | -24.43655 | 34030 ft | 495 kts | 253° |
| 2026-05-08 16:27 | 45.78902 | -24.52768 | 34039 ft | 495 kts | 253° |
| 2026-05-08 16:27 | 45.76226 | -24.61872 | 34049 ft | 495 kts | 253° |
| 2026-05-08 16:28 | 45.73542 | -24.70967 | 34040 ft | 495 kts | 253° |
| 2026-05-08 16:28 | 45.70857 | -24.80034 | 34046 ft | 495 kts | 253° |
| 2026-05-08 16:29 | 45.68175 | -24.89058 | 34052 ft | 495 kts | 253° |
| 2026-05-08 16:29 | 45.65471 | -24.98123 | 34051 ft | 495 kts | 253° |
| 2026-05-08 16:30 | 45.62759 | -25.07176 | 34068 ft | 494 kts | 253° |
| 2026-05-08 16:30 | 45.60059 | -25.16164 | 34073 ft | 494 kts | 253° |
| 2026-05-08 16:31 | 45.57335 | -25.25199 | 34066 ft | 495 kts | 253° |
| 2026-05-08 16:31 | 45.54623 | -25.34164 | 34083 ft | 495 kts | 253° |
| 2026-05-08 16:32 | 45.51888 | -25.43164 | 34075 ft | 494 kts | 254° |
| 2026-05-08 16:32 | 45.49143 | -25.52172 | 34080 ft | 494 kts | 254° |
| 2026-05-08 16:33 | 45.46407 | -25.61118 | 34086 ft | 494 kts | 254° |
| 2026-05-08 16:33 | 45.43655 | -25.70083 | 34056 ft | 493 kts | 255° |
| 2026-05-08 16:34 | 45.40922 | -25.78953 | 34082 ft | 493 kts | 255° |
| 2026-05-08 16:34 | 45.38159 | -25.87894 | 34100 ft | 493 kts | 255° |
| 2026-05-08 16:35 | 45.35405 | -25.96778 | 34104 ft | 493 kts | 255° |
| 2026-05-08 16:35 | 45.32637 | -26.05665 | 34064 ft | 492 kts | 256° |
| 2026-05-08 16:36 | 45.29860 | -26.14553 | 34100 ft | 491 kts | 256° |
| 2026-05-08 16:36 | 45.27098 | -26.23370 | 34113 ft | 491 kts | 256° |
| 2026-05-08 16:37 | 45.24325 | -26.32191 | 34113 ft | 492 kts | 256° |
| 2026-05-08 16:37 | 45.21545 | -26.40998 | 34108 ft | 491 kts | 256° |
| 2026-05-08 16:38 | 45.18749 | -26.49828 | 34120 ft | 491 kts | 256° |
| 2026-05-08 16:38 | 45.15946 | -26.58653 | 34122 ft | 492 kts | 256° |
| 2026-05-08 16:39 | 45.13128 | -26.67494 | 34054 ft | 492 kts | 256° |
| 2026-05-08 16:39 | 45.10299 | -26.76334 | 34127 ft | 491 kts | 256° |
| 2026-05-08 16:40 | 45.07486 | -26.85102 | 34137 ft | 492 kts | 256° |
| 2026-05-08 16:40 | 45.04647 | -26.93919 | 34144 ft | 492 kts | 256° |
| 2026-05-08 16:41 | 45.01807 | -27.02708 | 34115 ft | 491 kts | 255° |
| 2026-05-08 16:42 | 44.97539 | -27.15851 | 34163 ft | 490 kts | 255° |
| 2026-05-08 16:42 | 44.94710 | -27.24530 | 34139 ft | 489 kts | 255° |
| 2026-05-08 16:43 | 44.91864 | -27.33237 | 34111 ft | 488 kts | 254° |
| 2026-05-08 16:43 | 44.89018 | -27.41911 | 34147 ft | 486 kts | 254° |
| 2026-05-08 16:44 | 44.86176 | -27.50546 | 34158 ft | 484 kts | 254° |
| 2026-05-08 16:44 | 44.83368 | -27.59054 | 34158 ft | 484 kts | 254° |
| 2026-05-08 16:45 | 44.80582 | -27.67469 | 34147 ft | 483 kts | 253° |
| 2026-05-08 16:45 | 44.77726 | -27.76064 | 34162 ft | 484 kts | 253° |
| 2026-05-08 16:46 | 44.74868 | -27.84639 | 34171 ft | 484 kts | 253° |
| 2026-05-08 16:46 | 44.72017 | -27.93164 | 34168 ft | 485 kts | 253° |
| 2026-05-08 16:47 | 44.69128 | -28.01773 | 34176 ft | 486 kts | 253° |
| 2026-05-08 16:47 | 44.66230 | -28.10381 | 34174 ft | 486 kts | 253° |
| 2026-05-08 16:48 | 44.63328 | -28.18973 | 34181 ft | 486 kts | 253° |
| 2026-05-08 16:48 | 44.60440 | -28.27499 | 34140 ft | 486 kts | 252° |
| 2026-05-08 16:49 | 44.57528 | -28.36063 | 34176 ft | 485 kts | 252° |
| 2026-05-08 16:49 | 44.54615 | -28.44605 | 34181 ft | 484 kts | 252° |
| 2026-05-08 16:50 | 44.51737 | -28.53018 | 34186 ft | 484 kts | 252° |
| 2026-05-08 16:50 | 44.48819 | -28.61524 | 34171 ft | 482 kts | 252° |
| 2026-05-08 16:51 | 44.45903 | -28.69994 | 34181 ft | 481 kts | 252° |
| 2026-05-08 16:51 | 44.43008 | -28.78377 | 34192 ft | 481 kts | 252° |
| 2026-05-08 16:52 | 44.40088 | -28.86811 | 34188 ft | 480 kts | 252° |
| 2026-05-08 16:52 | 44.37187 | -28.95156 | 34196 ft | 478 kts | 253° |
| 2026-05-08 16:53 | 44.32821 | -29.07674 | 34202 ft | 477 kts | 253° |
| 2026-05-08 16:53 | 44.29913 | -29.15981 | 34204 ft | 476 kts | 253° |
| 2026-05-08 16:54 | 44.26993 | -29.24293 | 34194 ft | 474 kts | 253° |
| 2026-05-08 16:54 | 44.24109 | -29.32479 | 34200 ft | 472 kts | 253° |
| 2026-05-08 16:55 | 44.21207 | -29.40695 | 34208 ft | 471 kts | 253° |
| 2026-05-08 16:55 | 44.18322 | -29.48838 | 34208 ft | 471 kts | 253° |
| 2026-05-08 16:56 | 44.15416 | -29.57015 | 34213 ft | 469 kts | 253° |
| 2026-05-08 16:56 | 44.12528 | -29.65119 | 34216 ft | 469 kts | 253° |
| 2026-05-08 16:57 | 44.09618 | -29.73260 | 34218 ft | 469 kts | 253° |
| 2026-05-08 16:57 | 44.06691 | -29.81425 | 34184 ft | 470 kts | 252° |
| 2026-05-08 16:58 | 44.03785 | -29.89504 | 34220 ft | 470 kts | 252° |
| 2026-05-08 16:58 | 44.00855 | -29.97632 | 34228 ft | 470 kts | 252° |
| 2026-05-08 16:59 | 43.97986 | -30.05795 | 34229 ft | 469 kts | 254° |
| 2026-05-08 16:59 | 43.95267 | -30.13981 | 34220 ft | 468 kts | 253° |
| 2026-05-08 17:00 | 43.92537 | -30.22219 | 34232 ft | 468 kts | 253° |
| 2026-05-08 17:00 | 43.89814 | -30.30347 | 34236 ft | 468 kts | 253° |
| 2026-05-08 17:01 | 43.87087 | -30.38427 | 34239 ft | 468 kts | 253° |
| 2026-05-08 17:01 | 43.84321 | -30.46588 | 34233 ft | 467 kts | 253° |
| 2026-05-08 17:02 | 43.81568 | -30.54684 | 34238 ft | 466 kts | 253° |
| 2026-05-08 17:02 | 43.78795 | -30.62818 | 34248 ft | 466 kts | 253° |
| 2026-05-08 17:03 | 43.76022 | -30.70928 | 34247 ft | 465 kts | 253° |
| 2026-05-08 17:03 | 43.73250 | -30.79012 | 34243 ft | 464 kts | 253° |
| 2026-05-08 17:04 | 43.70491 | -30.87035 | 34244 ft | 464 kts | 252° |
| 2026-05-08 17:04 | 43.67758 | -30.94958 | 34248 ft | 465 kts | 252° |
| 2026-05-08 17:05 | 43.64964 | -31.03036 | 34251 ft | 465 kts | 252° |
| 2026-05-08 17:05 | 43.62168 | -31.11094 | 34251 ft | 465 kts | 252° |
| 2026-05-08 17:06 | 43.59359 | -31.19166 | 34253 ft | 465 kts | 252° |
| 2026-05-08 17:06 | 43.56547 | -31.27222 | 34252 ft | 466 kts | 252° |
| 2026-05-08 17:07 | 43.53753 | -31.35203 | 34229 ft | 465 kts | 252° |
| 2026-05-08 17:07 | 43.50938 | -31.43219 | 34257 ft | 465 kts | 252° |
| 2026-05-08 17:08 | 43.48115 | -31.51238 | 34256 ft | 465 kts | 252° |
| 2026-05-08 17:08 | 43.45299 | -31.59212 | 34257 ft | 465 kts | 252° |
| 2026-05-08 17:09 | 43.42453 | -31.67245 | 34254 ft | 465 kts | 251° |
| 2026-05-08 17:09 | 43.39634 | -31.75182 | 34257 ft | 465 kts | 251° |
| 2026-05-08 17:10 | 43.36785 | -31.83181 | 34264 ft | 465 kts | 251° |
| 2026-05-08 17:10 | 43.33947 | -31.91124 | 34220 ft | 465 kts | 251° |
| 2026-05-08 17:11 | 43.31573 | -31.97752 | 34256 ft | 464 kts | 251° |
| 2026-05-08 17:11 | 43.28251 | -32.06998 | 34265 ft | 464 kts | 251° |
| 2026-05-08 17:12 | 43.25853 | -32.13657 | 34262 ft | 465 kts | 251° |
| 2026-05-08 17:12 | 43.23000 | -32.21555 | 34255 ft | 465 kts | 251° |
| 2026-05-08 17:13 | 43.20130 | -32.29479 | 34275 ft | 465 kts | 251° |
| 2026-05-08 17:13 | 43.17241 | -32.37431 | 34276 ft | 466 kts | 251° |
| 2026-05-08 17:14 | 43.14342 | -32.45389 | 34279 ft | 466 kts | 251° |
| 2026-05-08 17:14 | 43.11458 | -32.53283 | 34273 ft | 466 kts | 250° |
| 2026-05-08 17:15 | 43.08549 | -32.61223 | 34282 ft | 467 kts | 250° |
| 2026-05-08 17:15 | 43.05622 | -32.69191 | 34284 ft | 468 kts | 250° |
| 2026-05-08 17:16 | 43.02705 | -32.77107 | 34285 ft | 468 kts | 250° |
| 2026-05-08 17:16 | 42.99765 | -32.85064 | 34280 ft | 468 kts | 249° |
| 2026-05-08 17:17 | 42.96818 | -32.93017 | 34286 ft | 469 kts | 249° |
| 2026-05-08 17:17 | 42.93879 | -33.00926 | 34288 ft | 469 kts | 249° |
| 2026-05-08 17:18 | 42.90916 | -33.08877 | 34272 ft | 469 kts | 249° |
| 2026-05-08 17:18 | 42.87972 | -33.16756 | 34285 ft | 469 kts | 249° |
| 2026-05-08 17:19 | 42.85000 | -33.24684 | 34289 ft | 469 kts | 249° |
| 2026-05-08 17:19 | 42.82017 | -33.32623 | 34293 ft | 469 kts | 249° |
| 2026-05-08 17:20 | 42.79053 | -33.40490 | 34284 ft | 469 kts | 248° |
| 2026-05-08 17:20 | 42.76086 | -33.48341 | 34290 ft | 469 kts | 248° |
| 2026-05-08 17:21 | 42.73096 | -33.56231 | 34296 ft | 469 kts | 248° |
| 2026-05-08 17:21 | 42.70098 | -33.64120 | 34266 ft | 469 kts | 248° |
| 2026-05-08 17:22 | 42.67098 | -33.71994 | 34291 ft | 468 kts | 247° |
| 2026-05-08 17:22 | 42.64115 | -33.79801 | 34289 ft | 468 kts | 247° |
| 2026-05-08 17:23 | 42.61100 | -33.87672 | 34293 ft | 469 kts | 247° |
| 2026-05-08 17:23 | 42.58081 | -33.95530 | 34311 ft | 469 kts | 247° |
| 2026-05-08 17:24 | 42.55079 | -34.03322 | 34303 ft | 469 kts | 247° |
| 2026-05-08 17:24 | 42.52051 | -34.11161 | 34301 ft | 469 kts | 247° |
| 2026-05-08 17:25 | 42.49023 | -34.18978 | 34280 ft | 469 kts | 247° |
| 2026-05-08 17:25 | 42.45999 | -34.26765 | 34306 ft | 469 kts | 246° |
| 2026-05-08 17:26 | 42.42966 | -34.34552 | 34304 ft | 470 kts | 246° |
| 2026-05-08 17:26 | 42.39902 | -34.42397 | 34316 ft | 471 kts | 246° |
| 2026-05-08 17:27 | 42.36850 | -34.50193 | 34301 ft | 471 kts | 246° |
| 2026-05-08 17:27 | 42.33769 | -34.58039 | 34307 ft | 472 kts | 246° |
| 2026-05-08 17:28 | 42.30675 | -34.65899 | 34317 ft | 473 kts | 246° |
| 2026-05-08 17:28 | 42.27570 | -34.73763 | 34298 ft | 474 kts | 245° |
| 2026-05-08 17:29 | 42.24477 | -34.81577 | 34307 ft | 475 kts | 245° |
| 2026-05-08 17:29 | 42.21355 | -34.89443 | 34317 ft | 476 kts | 245° |
| 2026-05-08 17:30 | 42.18216 | -34.97329 | 34320 ft | 476 kts | 245° |
| 2026-05-08 17:30 | 42.15071 | -35.05211 | 34308 ft | 477 kts | 244° |
| 2026-05-08 17:31 | 42.11934 | -35.13049 | 34316 ft | 477 kts | 244° |
| 2026-05-08 17:31 | 42.08769 | -35.20936 | 34322 ft | 478 kts | 244° |
| 2026-05-08 17:32 | 42.05630 | -35.28740 | 34313 ft | 478 kts | 244° |
| 2026-05-08 17:32 | 42.02446 | -35.36633 | 34319 ft | 479 kts | 244° |
| 2026-05-08 17:33 | 41.99253 | -35.44526 | 34320 ft | 480 kts | 244° |
| 2026-05-08 17:33 | 41.96081 | -35.52348 | 34326 ft | 480 kts | 244° |
| 2026-05-08 17:34 | 41.92891 | -35.60191 | 34322 ft | 481 kts | 243° |
| 2026-05-08 17:34 | 41.89673 | -35.68084 | 34332 ft | 482 kts | 243° |
| 2026-05-08 17:35 | 41.86444 | -35.75981 | 34329 ft | 483 kts | 243° |
| 2026-05-08 17:35 | 41.83203 | -35.83888 | 34325 ft | 483 kts | 242° |
| 2026-05-08 17:36 | 41.79980 | -35.91729 | 34335 ft | 484 kts | 242° |
| 2026-05-08 17:36 | 41.76719 | -35.99640 | 34335 ft | 485 kts | 242° |
| 2026-05-08 17:37 | 41.73446 | -36.07560 | 34330 ft | 486 kts | 242° |
| 2026-05-08 17:37 | 41.70161 | -36.15487 | 34329 ft | 486 kts | 242° |
| 2026-05-08 17:38 | 41.66869 | -36.23411 | 34331 ft | 486 kts | 242° |
| 2026-05-08 17:38 | 41.63595 | -36.31270 | 34331 ft | 486 kts | 242° |
| 2026-05-08 17:39 | 41.60283 | -36.39197 | 34346 ft | 486 kts | 242° |
| 2026-05-08 17:39 | 41.56988 | -36.47065 | 34349 ft | 484 kts | 242° |
| 2026-05-08 17:40 | 41.53722 | -36.54842 | 34328 ft | 481 kts | 242° |
| 2026-05-08 17:40 | 41.50443 | -36.62629 | 34327 ft | 478 kts | 242° |
| 2026-05-08 17:41 | 41.47185 | -36.70348 | 34330 ft | 477 kts | 242° |
| 2026-05-08 17:41 | 41.43929 | -36.78043 | 34349 ft | 476 kts | 242° |
| 2026-05-08 17:42 | 41.40682 | -36.85697 | 34331 ft | 477 kts | 243° |
| 2026-05-08 17:42 | 41.37407 | -36.93394 | 34329 ft | 477 kts | 243° |
| 2026-05-08 17:43 | 41.34134 | -37.01070 | 34349 ft | 476 kts | 243° |
| 2026-05-08 17:43 | 41.30884 | -37.08672 | 34333 ft | 476 kts | 243° |
| 2026-05-08 17:44 | 41.27606 | -37.16318 | 34344 ft | 474 kts | 243° |
| 2026-05-08 17:44 | 41.24338 | -37.23921 | 34341 ft | 472 kts | 243° |
| 2026-05-08 17:45 | 41.21087 | -37.31467 | 34340 ft | 470 kts | 243° |
| 2026-05-08 17:45 | 41.17850 | -37.38962 | 34333 ft | 469 kts | 243° |
| 2026-05-08 17:46 | 41.14607 | -37.46452 | 34336 ft | 468 kts | 243° |
| 2026-05-08 17:46 | 41.11360 | -37.53933 | 34337 ft | 467 kts | 243° |
| 2026-05-08 17:47 | 41.08133 | -37.61351 | 34325 ft | 467 kts | 243° |
| 2026-05-08 17:47 | 41.05432 | -37.67543 | 34337 ft | 466 kts | 243° |
| 2026-05-08 17:48 | 41.01635 | -37.76229 | 34336 ft | 466 kts | 243° |
| 2026-05-08 17:48 | 40.98369 | -37.83680 | 34337 ft | 466 kts | 243° |
| 2026-05-08 17:49 | 40.95128 | -37.91054 | 34328 ft | 466 kts | 243° |
| 2026-05-08 17:49 | 40.91846 | -37.98506 | 34332 ft | 465 kts | 243° |
| 2026-05-08 17:50 | 40.88600 | -38.05857 | 34331 ft | 465 kts | 243° |
| 2026-05-08 17:50 | 40.85333 | -38.13238 | 34322 ft | 464 kts | 243° |
| 2026-05-08 17:51 | 40.82060 | -38.20613 | 34339 ft | 465 kts | 243° |
| 2026-05-08 17:51 | 40.78787 | -38.27973 | 34338 ft | 465 kts | 243° |
| 2026-05-08 17:52 | 40.75520 | -38.35301 | 34332 ft | 465 kts | 243° |
| 2026-05-08 17:53 | 40.70598 | -38.46307 | 34341 ft | 466 kts | 243° |
| 2026-05-08 17:53 | 40.67289 | -38.53683 | 34334 ft | 467 kts | 243° |
| 2026-05-08 17:54 | 40.63969 | -38.61066 | 34315 ft | 467 kts | 243° |
| 2026-05-08 17:54 | 40.60668 | -38.68390 | 34331 ft | 468 kts | 243° |
| 2026-05-08 17:55 | 40.57334 | -38.75770 | 34332 ft | 468 kts | 243° |
| 2026-05-08 17:55 | 40.54570 | -38.81876 | 34332 ft | 469 kts | 243° |
| 2026-05-08 17:56 | 40.50680 | -38.90445 | 34331 ft | 469 kts | 243° |
| 2026-05-08 17:56 | 40.47875 | -38.96611 | 34335 ft | 469 kts | 242° |
| 2026-05-08 17:57 | 40.44540 | -39.03925 | 34334 ft | 469 kts | 242° |
| 2026-05-08 17:57 | 40.41182 | -39.11272 | 34334 ft | 469 kts | 242° |
| 2026-05-08 17:58 | 40.37835 | -39.18578 | 34334 ft | 469 kts | 242° |
| 2026-05-08 17:58 | 40.34470 | -39.25905 | 34334 ft | 468 kts | 242° |
| 2026-05-08 17:59 | 40.31101 | -39.33224 | 34316 ft | 468 kts | 242° |
| 2026-05-08 17:59 | 40.27748 | -39.40492 | 34333 ft | 468 kts | 242° |
| 2026-05-08 18:00 | 40.24365 | -39.47807 | 34334 ft | 469 kts | 242° |
| 2026-05-08 18:00 | 40.19304 | -39.58720 | 34326 ft | 469 kts | 242° |
| 2026-05-08 18:01 | 40.15903 | -39.66030 | 34336 ft | 470 kts | 242° |
| 2026-05-08 18:01 | 40.12495 | -39.73340 | 34337 ft | 470 kts | 242° |
| 2026-05-08 18:02 | 40.09101 | -39.80603 | 34324 ft | 470 kts | 242° |
| 2026-05-08 18:02 | 40.05690 | -39.87886 | 34340 ft | 471 kts | 242° |
| 2026-05-08 18:03 | 40.02260 | -39.95194 | 34338 ft | 472 kts | 242° |
| 2026-05-08 18:03 | 39.98718 | -40.02422 | 34335 ft | 475 kts | 237° |
| 2026-05-08 18:04 | 39.96763 | -40.05947 | 34491 ft | 478 kts | 237° |
| 2026-05-08 18:04 | 39.94834 | -40.09386 | 34805 ft | 477 kts | 237° |
| 2026-05-08 18:04 | 39.92855 | -40.12904 | 35215 ft | 474 kts | 237° |
| 2026-05-08 18:04 | 39.90935 | -40.16318 | 35580 ft | 472 kts | 237° |
| 2026-05-08 18:05 | 39.89000 | -40.19766 | 35900 ft | 471 kts | 237° |
| 2026-05-08 18:05 | 39.87062 | -40.23228 | 36167 ft | 471 kts | 237° |
| 2026-05-08 18:05 | 39.83172 | -40.30184 | 36301 ft | 478 kts | 237° |
| 2026-05-08 18:06 | 39.79284 | -40.37124 | 36328 ft | 475 kts | 237° |
| 2026-05-08 18:06 | 39.75406 | -40.44026 | 36334 ft | 471 kts | 237° |
| 2026-05-08 18:07 | 39.71560 | -40.50859 | 36334 ft | 470 kts | 236° |
| 2026-05-08 18:07 | 39.67688 | -40.57725 | 36341 ft | 471 kts | 236° |
| 2026-05-08 18:08 | 39.63831 | -40.64549 | 36341 ft | 473 kts | 236° |
| 2026-05-08 18:08 | 39.59916 | -40.71462 | 36330 ft | 475 kts | 236° |
| 2026-05-08 18:09 | 39.56015 | -40.78333 | 36341 ft | 477 kts | 236° |
| 2026-05-08 18:09 | 39.52083 | -40.85243 | 36337 ft | 479 kts | 236° |
| 2026-05-08 18:10 | 39.48107 | -40.92215 | 36328 ft | 480 kts | 236° |
| 2026-05-08 18:10 | 39.44152 | -40.99135 | 36337 ft | 481 kts | 236° |
| 2026-05-08 18:11 | 39.40179 | -41.06072 | 36332 ft | 481 kts | 236° |
| 2026-05-08 18:11 | 39.36178 | -41.13041 | 36325 ft | 481 kts | 236° |
| 2026-05-08 18:12 | 39.32202 | -41.19953 | 36328 ft | 482 kts | 236° |
| 2026-05-08 18:12 | 39.28187 | -41.26919 | 36346 ft | 482 kts | 236° |
| 2026-05-08 18:13 | 39.24199 | -41.33822 | 36330 ft | 483 kts | 236° |
| 2026-05-08 18:13 | 39.20170 | -41.40781 | 36329 ft | 483 kts | 236° |
| 2026-05-08 18:14 | 39.16141 | -41.47723 | 36327 ft | 483 kts | 236° |
| 2026-05-08 18:14 | 39.12114 | -41.54649 | 36338 ft | 483 kts | 236° |
| 2026-05-08 18:15 | 39.08099 | -41.61539 | 36333 ft | 482 kts | 235° |
| 2026-05-08 18:15 | 39.04061 | -41.68451 | 36311 ft | 482 kts | 235° |
| 2026-05-08 18:16 | 39.00048 | -41.75308 | 36331 ft | 482 kts | 236° |
| 2026-05-08 18:16 | 38.95999 | -41.82212 | 36324 ft | 483 kts | 235° |
| 2026-05-08 18:17 | 38.91946 | -41.89108 | 36304 ft | 483 kts | 236° |
| 2026-05-08 18:17 | 38.87950 | -41.95892 | 36318 ft | 484 kts | 236° |
| 2026-05-08 18:18 | 38.83871 | -42.02803 | 36321 ft | 486 kts | 235° |
| 2026-05-08 18:18 | 38.79781 | -42.09716 | 36301 ft | 487 kts | 236° |
| 2026-05-08 18:19 | 38.75696 | -42.16608 | 36318 ft | 488 kts | 236° |
| 2026-05-08 18:19 | 38.71572 | -42.23550 | 36316 ft | 490 kts | 236° |
| 2026-05-08 18:20 | 38.67426 | -42.30512 | 36304 ft | 491 kts | 236° |
| 2026-05-08 18:20 | 38.63267 | -42.37484 | 36316 ft | 493 kts | 236° |
| 2026-05-08 18:21 | 38.59102 | -42.44449 | 36316 ft | 494 kts | 236° |
| 2026-05-08 18:21 | 38.54939 | -42.51395 | 36294 ft | 495 kts | 236° |
| 2026-05-08 18:22 | 38.50733 | -42.58400 | 36313 ft | 498 kts | 236° |
| 2026-05-08 18:22 | 38.46502 | -42.65431 | 36317 ft | 500 kts | 236° |
| 2026-05-08 18:23 | 38.42252 | -42.72477 | 36300 ft | 502 kts | 236° |
| 2026-05-08 18:23 | 38.38006 | -42.79502 | 36308 ft | 503 kts | 236° |
| 2026-05-08 18:24 | 38.33719 | -42.86579 | 36299 ft | 500 kts | 235° |
| 2026-05-08 18:24 | 38.29480 | -42.93557 | 36298 ft | 496 kts | 236° |
| 2026-05-08 18:25 | 38.25278 | -43.00464 | 36304 ft | 496 kts | 236° |
| 2026-05-08 18:25 | 38.21046 | -43.07408 | 36287 ft | 497 kts | 236° |
| 2026-05-08 18:26 | 38.16790 | -43.14376 | 36318 ft | 499 kts | 236° |
| 2026-05-08 18:26 | 38.12513 | -43.21363 | 36315 ft | 502 kts | 235° |
| 2026-05-08 18:27 | 38.08957 | -43.27159 | 36295 ft | 503 kts | 235° |
| 2026-05-08 18:27 | 38.03929 | -43.35337 | 36288 ft | 505 kts | 235° |
| 2026-05-08 18:28 | 37.99596 | -43.42367 | 36291 ft | 505 kts | 235° |
| 2026-05-08 18:28 | 37.95278 | -43.49360 | 36290 ft | 507 kts | 236° |
| 2026-05-08 18:29 | 37.90908 | -43.56421 | 36292 ft | 508 kts | 236° |
| 2026-05-08 18:29 | 37.86538 | -43.63468 | 36275 ft | 510 kts | 236° |
| 2026-05-08 18:30 | 37.82164 | -43.70506 | 36283 ft | 512 kts | 236° |
| 2026-05-08 18:30 | 37.77737 | -43.77613 | 36285 ft | 514 kts | 236° |
| 2026-05-08 18:31 | 37.73305 | -43.84713 | 36275 ft | 515 kts | 235° |
| 2026-05-08 18:31 | 37.68875 | -43.91795 | 36283 ft | 516 kts | 235° |
| 2026-05-08 18:32 | 37.64413 | -43.98913 | 36259 ft | 517 kts | 235° |
| 2026-05-08 18:32 | 37.59940 | -44.06032 | 36271 ft | 517 kts | 235° |
| 2026-05-08 18:33 | 37.55479 | -44.13117 | 36292 ft | 517 kts | 235° |
| 2026-05-08 18:33 | 37.50997 | -44.20220 | 36255 ft | 516 kts | 235° |
| 2026-05-08 18:34 | 37.46523 | -44.27294 | 36268 ft | 515 kts | 235° |
| 2026-05-08 18:34 | 37.42084 | -44.34300 | 36251 ft | 514 kts | 235° |
| 2026-05-08 18:35 | 37.37629 | -44.41316 | 36259 ft | 513 kts | 234° |
| 2026-05-08 18:35 | 37.33260 | -44.48183 | 36262 ft | 513 kts | 234° |
| 2026-05-08 18:36 | 37.28791 | -44.55191 | 36246 ft | 513 kts | 234° |
| 2026-05-08 18:36 | 37.24310 | -44.62204 | 36260 ft | 514 kts | 234° |
| 2026-05-08 18:37 | 37.19849 | -44.69170 | 36257 ft | 515 kts | 234° |
| 2026-05-08 18:37 | 37.15346 | -44.76189 | 36251 ft | 516 kts | 234° |
| 2026-05-08 18:38 | 37.10825 | -44.83219 | 36249 ft | 517 kts | 234° |
| 2026-05-08 18:38 | 37.06339 | -44.90186 | 36239 ft | 517 kts | 234° |
| 2026-05-08 18:39 | 37.01806 | -44.97128 | 36244 ft | 518 kts | 230° |
| 2026-05-08 18:39 | 36.96544 | -45.03315 | 36246 ft | 521 kts | 218° |
| 2026-05-08 18:40 | 36.90689 | -45.08591 | 36255 ft | 521 kts | 217° |
| 2026-05-08 18:40 | 36.84781 | -45.13858 | 36239 ft | 521 kts | 217° |
| 2026-05-08 18:41 | 36.79876 | -45.18270 | 36236 ft | 521 kts | 217° |
| 2026-05-08 18:41 | 36.74013 | -45.23570 | 36236 ft | 520 kts | 217° |
| 2026-05-08 18:42 | 36.68169 | -45.28856 | 36233 ft | 520 kts | 217° |
| 2026-05-08 18:42 | 36.62317 | -45.34137 | 36237 ft | 518 kts | 217° |
| 2026-05-08 18:43 | 36.56514 | -45.39360 | 36249 ft | 518 kts | 217° |
| 2026-05-08 18:43 | 36.50661 | -45.44617 | 36232 ft | 517 kts | 217° |
| 2026-05-08 18:44 | 36.44856 | -45.49821 | 36231 ft | 517 kts | 217° |
| 2026-05-08 18:44 | 36.39013 | -45.55050 | 36225 ft | 518 kts | 216° |
| 2026-05-08 18:45 | 36.33155 | -45.60282 | 36227 ft | 518 kts | 216° |
| 2026-05-08 18:45 | 36.27285 | -45.65515 | 36218 ft | 518 kts | 216° |
| 2026-05-08 18:46 | 36.21456 | -45.70701 | 36227 ft | 518 kts | 216° |
| 2026-05-08 18:46 | 36.15588 | -45.75912 | 36213 ft | 519 kts | 216° |
| 2026-05-08 18:47 | 36.09721 | -45.81113 | 36222 ft | 518 kts | 216° |
| 2026-05-08 18:47 | 36.03909 | -45.86255 | 36222 ft | 518 kts | 216° |
| 2026-05-08 18:48 | 35.98042 | -45.91436 | 36211 ft | 517 kts | 216° |
| 2026-05-08 18:48 | 35.92193 | -45.96592 | 36209 ft | 517 kts | 216° |
| 2026-05-08 18:49 | 35.86358 | -46.01726 | 36233 ft | 516 kts | 216° |
| 2026-05-08 18:49 | 35.80508 | -46.06864 | 36199 ft | 515 kts | 216° |
| 2026-05-08 18:50 | 35.74679 | -46.11973 | 36214 ft | 512 kts | 216° |
| 2026-05-08 18:50 | 35.68909 | -46.17022 | 36192 ft | 509 kts | 216° |
| 2026-05-08 18:51 | 35.63121 | -46.22077 | 36195 ft | 508 kts | 216° |
| 2026-05-08 18:51 | 35.57344 | -46.27114 | 36220 ft | 509 kts | 216° |
| 2026-05-08 18:52 | 35.51588 | -46.32123 | 36207 ft | 512 kts | 216° |
| 2026-05-08 18:52 | 35.45764 | -46.37183 | 36193 ft | 512 kts | 216° |
| 2026-05-08 18:53 | 35.39966 | -46.42211 | 36195 ft | 513 kts | 216° |
| 2026-05-08 18:53 | 35.34119 | -46.47272 | 36202 ft | 513 kts | 216° |
| 2026-05-08 18:54 | 35.28316 | -46.52286 | 36197 ft | 513 kts | 216° |
| 2026-05-08 18:54 | 35.22484 | -46.57315 | 36209 ft | 511 kts | 216° |
| 2026-05-08 18:55 | 35.13757 | -46.64825 | 36189 ft | 510 kts | 216° |
| 2026-05-08 18:56 | 35.07977 | -46.69788 | 36210 ft | 509 kts | 216° |
| 2026-05-08 18:56 | 35.02189 | -46.74749 | 36185 ft | 508 kts | 216° |
| 2026-05-08 18:57 | 34.96399 | -46.79703 | 36210 ft | 506 kts | 216° |
| 2026-05-08 18:57 | 34.90679 | -46.84587 | 36186 ft | 503 kts | 216° |
| 2026-05-08 18:58 | 34.84941 | -46.89480 | 36183 ft | 501 kts | 216° |
| 2026-05-08 18:58 | 34.79229 | -46.94342 | 36203 ft | 498 kts | 216° |
| 2026-05-08 18:59 | 34.73560 | -46.99159 | 36175 ft | 497 kts | 216° |
| 2026-05-08 18:59 | 34.67913 | -47.03950 | 36211 ft | 497 kts | 216° |
| 2026-05-08 19:00 | 34.62221 | -47.08769 | 36183 ft | 498 kts | 216° |
| 2026-05-08 19:00 | 34.56560 | -47.13555 | 36191 ft | 498 kts | 216° |
| 2026-05-08 19:01 | 34.50853 | -47.18372 | 36180 ft | 499 kts | 216° |
| 2026-05-08 19:01 | 34.45130 | -47.23193 | 36177 ft | 500 kts | 216° |
| 2026-05-08 19:02 | 34.39408 | -47.28006 | 36185 ft | 501 kts | 216° |
| 2026-05-08 19:02 | 34.33679 | -47.32816 | 36177 ft | 502 kts | 216° |
| 2026-05-08 19:03 | 34.27963 | -47.37607 | 36184 ft | 502 kts | 216° |
| 2026-05-08 19:03 | 34.22247 | -47.42390 | 36169 ft | 503 kts | 216° |
| 2026-05-08 19:04 | 34.16509 | -47.47184 | 36163 ft | 503 kts | 216° |
| 2026-05-08 19:04 | 34.10731 | -47.52002 | 36168 ft | 504 kts | 216° |
| 2026-05-08 19:05 | 34.04987 | -47.56785 | 36173 ft | 504 kts | 216° |
| 2026-05-08 19:05 | 33.99209 | -47.61587 | 36160 ft | 504 kts | 216° |
| 2026-05-08 19:06 | 33.93425 | -47.66387 | 36164 ft | 505 kts | 216° |
| 2026-05-08 19:06 | 33.87631 | -47.71187 | 36181 ft | 505 kts | 216° |
| 2026-05-08 19:07 | 33.81821 | -47.75992 | 36171 ft | 506 kts | 216° |
| 2026-05-08 19:07 | 33.76036 | -47.80767 | 36158 ft | 507 kts | 216° |
| 2026-05-08 19:08 | 33.70211 | -47.85569 | 36174 ft | 507 kts | 216° |
| 2026-05-08 19:08 | 33.64399 | -47.90352 | 36170 ft | 508 kts | 216° |
| 2026-05-08 19:09 | 33.58553 | -47.95154 | 36154 ft | 509 kts | 216° |
| 2026-05-08 19:09 | 33.52731 | -47.99928 | 36158 ft | 509 kts | 216° |
| 2026-05-08 19:10 | 33.46871 | -48.04726 | 36161 ft | 510 kts | 216° |
| 2026-05-08 19:10 | 33.41031 | -48.09499 | 36170 ft | 510 kts | 216° |
| 2026-05-08 19:11 | 33.35191 | -48.14265 | 36166 ft | 511 kts | 216° |
| 2026-05-08 19:11 | 33.29294 | -48.19070 | 36150 ft | 512 kts | 216° |
| 2026-05-08 19:12 | 33.23431 | -48.23838 | 36132 ft | 512 kts | 216° |
| 2026-05-08 19:12 | 33.17532 | -48.28627 | 36158 ft | 512 kts | 216° |
| 2026-05-08 19:13 | 33.11627 | -48.33415 | 36143 ft | 513 kts | 216° |
| 2026-05-08 19:13 | 33.05710 | -48.38203 | 36140 ft | 513 kts | 216° |
| 2026-05-08 19:14 | 32.99824 | -48.42959 | 36141 ft | 513 kts | 216° |
| 2026-05-08 19:14 | 32.93903 | -48.47735 | 36154 ft | 513 kts | 216° |
| 2026-05-08 19:15 | 32.88008 | -48.52482 | 36133 ft | 515 kts | 216° |
| 2026-05-08 19:15 | 32.82046 | -48.57276 | 36149 ft | 516 kts | 216° |
| 2026-05-08 19:16 | 32.76079 | -48.62066 | 36136 ft | 517 kts | 216° |
| 2026-05-08 19:16 | 32.70140 | -48.66824 | 36122 ft | 518 kts | 217° |
| 2026-05-08 19:17 | 32.64154 | -48.71614 | 36147 ft | 520 kts | 217° |
| 2026-05-08 19:17 | 32.58139 | -48.76418 | 36140 ft | 521 kts | 217° |
| 2026-05-08 19:18 | 32.52135 | -48.81206 | 36141 ft | 522 kts | 217° |
| 2026-05-08 19:18 | 32.46087 | -48.86020 | 36136 ft | 523 kts | 217° |
| 2026-05-08 19:19 | 32.40027 | -48.90837 | 36119 ft | 523 kts | 217° |
| 2026-05-08 19:19 | 32.34011 | -48.95609 | 36144 ft | 523 kts | 217° |
| 2026-05-08 19:20 | 32.27961 | -49.00402 | 36123 ft | 522 kts | 217° |
| 2026-05-08 19:20 | 32.21958 | -49.05149 | 36141 ft | 520 kts | 217° |
| 2026-05-08 19:21 | 32.15934 | -49.09906 | 36111 ft | 520 kts | 217° |
| 2026-05-08 19:21 | 32.09908 | -49.14657 | 36136 ft | 521 kts | 217° |
| 2026-05-08 19:22 | 32.03895 | -49.19391 | 36136 ft | 524 kts | 217° |
| 2026-05-08 19:22 | 31.97806 | -49.24177 | 36138 ft | 526 kts | 217° |
| 2026-05-08 19:23 | 31.91697 | -49.28970 | 36132 ft | 527 kts | 217° |
| 2026-05-08 19:23 | 31.85622 | -49.33727 | 36130 ft | 528 kts | 218° |
| 2026-05-08 19:24 | 31.79481 | -49.38529 | 36130 ft | 529 kts | 218° |
| 2026-05-08 19:24 | 31.73331 | -49.43331 | 36129 ft | 531 kts | 218° |
| 2026-05-08 19:25 | 31.68210 | -49.47323 | 36129 ft | 532 kts | 218° |
| 2026-05-08 19:25 | 31.62043 | -49.52123 | 36125 ft | 532 kts | 218° |
| 2026-05-08 19:26 | 31.55861 | -49.56928 | 36113 ft | 533 kts | 218° |
| 2026-05-08 19:26 | 31.49714 | -49.61698 | 36122 ft | 533 kts | 218° |
| 2026-05-08 19:27 | 31.43505 | -49.66508 | 36123 ft | 534 kts | 218° |
| 2026-05-08 19:27 | 31.37305 | -49.71303 | 36122 ft | 534 kts | 218° |
| 2026-05-08 19:28 | 31.31097 | -49.76096 | 36107 ft | 534 kts | 218° |
| 2026-05-08 19:28 | 31.24920 | -49.80859 | 36119 ft | 535 kts | 218° |
| 2026-05-08 19:29 | 31.18697 | -49.85649 | 36116 ft | 535 kts | 218° |
| 2026-05-08 19:29 | 31.12473 | -49.90434 | 36117 ft | 535 kts | 218° |
| 2026-05-08 19:30 | 31.06280 | -49.95188 | 36120 ft | 536 kts | 218° |
| 2026-05-08 19:30 | 31.00010 | -49.99886 | 36106 ft | 537 kts | 214° |
| 2026-05-08 19:31 | 30.93270 | -50.03659 | 36123 ft | 541 kts | 207° |
| 2026-05-08 19:31 | 30.86352 | -50.07167 | 36115 ft | 541 kts | 207° |
| 2026-05-08 19:32 | 30.79496 | -50.10672 | 36121 ft | 540 kts | 208° |
| 2026-05-08 19:32 | 30.72616 | -50.14233 | 36118 ft | 540 kts | 208° |
| 2026-05-08 19:33 | 30.65772 | -50.17788 | 36115 ft | 540 kts | 208° |
| 2026-05-08 19:33 | 30.58922 | -50.21339 | 36107 ft | 540 kts | 208° |
| 2026-05-08 19:34 | 30.52035 | -50.24900 | 36114 ft | 539 kts | 208° |
| 2026-05-08 19:34 | 30.45211 | -50.28422 | 36113 ft | 539 kts | 208° |
| 2026-05-08 19:35 | 30.38372 | -50.31945 | 36114 ft | 539 kts | 208° |
| 2026-05-08 19:35 | 30.31500 | -50.35481 | 36109 ft | 539 kts | 208° |
| 2026-05-08 19:36 | 30.24671 | -50.38989 | 36111 ft | 539 kts | 208° |
| 2026-05-08 19:36 | 30.17810 | -50.42508 | 36088 ft | 539 kts | 208° |
| 2026-05-08 19:37 | 30.10943 | -50.46024 | 36107 ft | 539 kts | 208° |
| 2026-05-08 19:37 | 30.04109 | -50.49519 | 36111 ft | 538 kts | 208° |
| 2026-05-08 19:38 | 29.97260 | -50.53016 | 36113 ft | 538 kts | 208° |
| 2026-05-08 19:38 | 29.90395 | -50.56516 | 36111 ft | 538 kts | 208° |
| 2026-05-08 19:39 | 29.83576 | -50.59987 | 36114 ft | 538 kts | 208° |
| 2026-05-08 19:39 | 29.76715 | -50.63474 | 36107 ft | 538 kts | 208° |
| 2026-05-08 19:40 | 29.69868 | -50.66948 | 36110 ft | 537 kts | 208° |
| 2026-05-08 19:40 | 29.63069 | -50.70393 | 36110 ft | 536 kts | 208° |
| 2026-05-08 19:41 | 29.56242 | -50.73847 | 36109 ft | 535 kts | 208° |
| 2026-05-08 19:41 | 29.49417 | -50.77296 | 36106 ft | 534 kts | 208° |
| 2026-05-08 19:42 | 29.42648 | -50.80711 | 36109 ft | 534 kts | 208° |
| 2026-05-08 19:42 | 29.35831 | -50.84146 | 36113 ft | 534 kts | 208° |
| 2026-05-08 19:43 | 29.29044 | -50.87560 | 36107 ft | 534 kts | 208° |
| 2026-05-08 19:43 | 29.22219 | -50.90988 | 36101 ft | 533 kts | 208° |
| 2026-05-08 19:44 | 29.15453 | -50.94381 | 36098 ft | 533 kts | 208° |
| 2026-05-08 19:44 | 29.08639 | -50.97794 | 36097 ft | 533 kts | 208° |
| 2026-05-08 19:45 | 29.01878 | -51.01175 | 36104 ft | 533 kts | 208° |
| 2026-05-08 19:45 | 28.95079 | -51.04571 | 36101 ft | 533 kts | 208° |
| 2026-05-08 19:46 | 28.88379 | -51.07912 | 36105 ft | 534 kts | 208° |
| 2026-05-08 19:46 | 28.78157 | -51.13001 | 36097 ft | 534 kts | 208° |
| 2026-05-08 19:47 | 28.71365 | -51.16376 | 36106 ft | 535 kts | 208° |
| 2026-05-08 19:47 | 28.64534 | -51.19765 | 36104 ft | 535 kts | 208° |
| 2026-05-08 19:48 | 28.57692 | -51.23155 | 36102 ft | 535 kts | 208° |
| 2026-05-08 19:48 | 28.50854 | -51.26539 | 36104 ft | 535 kts | 208° |
| 2026-05-08 19:49 | 28.44012 | -51.29919 | 36103 ft | 535 kts | 208° |
| 2026-05-08 19:49 | 28.37198 | -51.33281 | 36104 ft | 535 kts | 208° |
| 2026-05-08 19:50 | 28.30399 | -51.36630 | 36100 ft | 535 kts | 208° |
| 2026-05-08 19:50 | 28.23582 | -51.39984 | 36100 ft | 534 kts | 208° |
| 2026-05-08 19:51 | 28.16771 | -51.43330 | 36096 ft | 533 kts | 208° |
| 2026-05-08 19:51 | 28.09958 | -51.46673 | 36100 ft | 532 kts | 208° |
| 2026-05-08 19:52 | 28.03198 | -51.49986 | 36101 ft | 532 kts | 208° |
| 2026-05-08 19:52 | 27.96403 | -51.53310 | 36097 ft | 532 kts | 208° |
| 2026-05-08 19:53 | 27.89594 | -51.56637 | 36099 ft | 532 kts | 208° |
| 2026-05-08 19:53 | 27.82795 | -51.59955 | 36089 ft | 531 kts | 208° |
| 2026-05-08 19:54 | 27.76045 | -51.63243 | 36090 ft | 531 kts | 208° |
| 2026-05-08 19:54 | 27.69241 | -51.66555 | 36094 ft | 531 kts | 208° |
| 2026-05-08 19:55 | 27.62477 | -51.69842 | 36092 ft | 531 kts | 208° |
| 2026-05-08 19:55 | 27.55726 | -51.73118 | 36085 ft | 530 kts | 208° |
| 2026-05-08 19:56 | 27.48944 | -51.76405 | 36090 ft | 530 kts | 208° |
| 2026-05-08 19:56 | 27.42161 | -51.79688 | 36087 ft | 530 kts | 208° |
| 2026-05-08 19:57 | 27.35364 | -51.82973 | 36083 ft | 530 kts | 208° |
| 2026-05-08 19:57 | 27.28634 | -51.86222 | 36089 ft | 529 kts | 208° |
| 2026-05-08 19:58 | 27.21873 | -51.89481 | 36090 ft | 528 kts | 208° |
| 2026-05-08 19:58 | 27.15109 | -51.92738 | 36081 ft | 528 kts | 208° |
| 2026-05-08 19:59 | 27.08386 | -51.95972 | 36086 ft | 527 kts | 208° |
| 2026-05-08 19:59 | 27.01633 | -51.99216 | 36085 ft | 527 kts | 208° |
| 2026-05-08 20:00 | 26.95117 | -52.02942 | 36111 ft | 522 kts | 214° |
| 2026-05-08 20:00 | 26.88800 | -52.06967 | 36093 ft | 522 kts | 215° |
| 2026-05-08 20:01 | 26.82515 | -52.10962 | 36085 ft | 522 kts | 214° |
| 2026-05-08 20:01 | 26.76164 | -52.14957 | 36085 ft | 522 kts | 214° |
| 2026-05-08 20:02 | 26.69818 | -52.18925 | 36082 ft | 521 kts | 214° |
| 2026-05-08 20:02 | 26.63520 | -52.22855 | 36085 ft | 521 kts | 214° |
| 2026-05-08 20:03 | 26.57186 | -52.26806 | 36078 ft | 521 kts | 214° |
| 2026-05-08 20:03 | 26.50852 | -52.30753 | 36076 ft | 520 kts | 214° |
| 2026-05-08 20:04 | 26.44529 | -52.34688 | 36080 ft | 520 kts | 214° |
| 2026-05-08 20:04 | 26.38214 | -52.38614 | 36075 ft | 519 kts | 214° |
| 2026-05-08 20:05 | 26.31933 | -52.42514 | 36084 ft | 519 kts | 214° |
| 2026-05-08 20:05 | 26.25620 | -52.46428 | 36088 ft | 519 kts | 214° |
| 2026-05-08 20:06 | 26.19304 | -52.50339 | 36084 ft | 519 kts | 214° |
| 2026-05-08 20:06 | 26.13005 | -52.54235 | 36077 ft | 519 kts | 214° |
| 2026-05-08 20:07 | 26.06733 | -52.58109 | 36084 ft | 518 kts | 214° |
| 2026-05-08 20:07 | 26.00400 | -52.62016 | 36086 ft | 518 kts | 214° |
| 2026-05-08 20:08 | 25.94133 | -52.65878 | 36074 ft | 518 kts | 214° |
| 2026-05-08 20:08 | 25.87811 | -52.69768 | 36079 ft | 517 kts | 213° |
| 2026-05-08 20:09 | 25.81550 | -52.73617 | 36085 ft | 517 kts | 213° |
| 2026-05-08 20:09 | 25.75239 | -52.77492 | 36069 ft | 517 kts | 213° |
| 2026-05-08 20:10 | 25.68928 | -52.81361 | 36077 ft | 516 kts | 213° |
| 2026-05-08 20:10 | 25.63696 | -52.84565 | 36088 ft | 516 kts | 213° |
| 2026-05-08 20:11 | 25.56388 | -52.89036 | 36090 ft | 515 kts | 213° |
| 2026-05-08 20:11 | 25.51156 | -52.92233 | 36069 ft | 515 kts | 213° |
| 2026-05-08 20:12 | 25.44868 | -52.96071 | 36069 ft | 516 kts | 213° |
| 2026-05-08 20:12 | 25.38575 | -52.99907 | 36083 ft | 516 kts | 213° |
| 2026-05-08 20:13 | 25.32282 | -53.03738 | 36083 ft | 515 kts | 213° |
| 2026-05-08 20:13 | 25.26027 | -53.07543 | 36077 ft | 515 kts | 213° |
| 2026-05-08 20:14 | 25.19748 | -53.11356 | 36080 ft | 514 kts | 213° |
| 2026-05-08 20:14 | 25.13463 | -53.15169 | 36073 ft | 514 kts | 213° |
| 2026-05-08 20:15 | 25.07198 | -53.18966 | 36076 ft | 513 kts | 213° |
| 2026-05-08 20:15 | 25.00957 | -53.22743 | 36077 ft | 514 kts | 213° |
| 2026-05-08 20:16 | 24.94680 | -53.26538 | 36069 ft | 514 kts | 213° |
| 2026-05-08 20:16 | 24.88401 | -53.30330 | 36068 ft | 513 kts | 213° |
| 2026-05-08 20:17 | 24.82166 | -53.34090 | 36075 ft | 513 kts | 213° |
| 2026-05-08 20:17 | 24.75893 | -53.37869 | 36073 ft | 513 kts | 213° |
| 2026-05-08 20:18 | 24.69659 | -53.41621 | 36066 ft | 513 kts | 212° |
| 2026-05-08 20:18 | 24.63377 | -53.45397 | 36074 ft | 513 kts | 212° |
| 2026-05-08 20:19 | 24.57086 | -53.49174 | 36071 ft | 514 kts | 212° |
| 2026-05-08 20:19 | 24.50839 | -53.52920 | 36071 ft | 514 kts | 212° |
| 2026-05-08 20:20 | 24.44550 | -53.56687 | 36074 ft | 514 kts | 212° |
| 2026-05-08 20:20 | 24.38246 | -53.60459 | 36074 ft | 515 kts | 212° |
| 2026-05-08 20:21 | 24.31941 | -53.64226 | 36073 ft | 515 kts | 212° |
| 2026-05-08 20:21 | 24.25679 | -53.67964 | 36065 ft | 515 kts | 212° |
| 2026-05-08 20:22 | 24.19359 | -53.71733 | 36067 ft | 515 kts | 212° |
| 2026-05-08 20:22 | 24.13081 | -53.75471 | 36063 ft | 515 kts | 212° |
| 2026-05-08 20:23 | 24.06777 | -53.79221 | 36066 ft | 515 kts | 212° |
| 2026-05-08 20:23 | 24.00505 | -53.82948 | 36060 ft | 514 kts | 212° |
| 2026-05-08 20:24 | 23.94212 | -53.86684 | 36063 ft | 514 kts | 212° |
| 2026-05-08 20:24 | 23.87924 | -53.90412 | 36065 ft | 514 kts | 212° |
| 2026-05-08 20:25 | 23.81644 | -53.94131 | 36055 ft | 514 kts | 212° |
| 2026-05-08 20:25 | 23.75359 | -53.97850 | 36066 ft | 513 kts | 212° |
| 2026-05-08 20:26 | 23.69056 | -54.01574 | 36059 ft | 513 kts | 212° |
| 2026-05-08 20:26 | 23.62821 | -54.05255 | 36064 ft | 513 kts | 212° |
| 2026-05-08 20:27 | 23.56552 | -54.08951 | 36058 ft | 513 kts | 211° |
| 2026-05-08 20:27 | 23.50285 | -54.12642 | 36061 ft | 513 kts | 211° |
| 2026-05-08 20:28 | 23.43997 | -54.16342 | 36063 ft | 513 kts | 211° |
| 2026-05-08 20:28 | 23.37699 | -54.20043 | 36051 ft | 513 kts | 211° |
| 2026-05-08 20:29 | 23.31401 | -54.23741 | 36062 ft | 513 kts | 211° |
| 2026-05-08 20:29 | 23.25150 | -54.27407 | 36061 ft | 513 kts | 211° |
| 2026-05-08 20:30 | 23.18850 | -54.31097 | 36060 ft | 513 kts | 211° |
| 2026-05-08 20:30 | 23.12601 | -54.34754 | 36060 ft | 513 kts | 211° |
| 2026-05-08 20:31 | 23.06299 | -54.38438 | 36053 ft | 513 kts | 211° |
| 2026-05-08 20:31 | 23.00018 | -54.42106 | 36059 ft | 513 kts | 211° |
| 2026-05-08 20:32 | 22.93754 | -54.45760 | 36056 ft | 513 kts | 211° |
| 2026-05-08 20:32 | 22.87464 | -54.49425 | 36054 ft | 513 kts | 211° |
| 2026-05-08 20:33 | 22.81207 | -54.53067 | 36051 ft | 512 kts | 211° |
| 2026-05-08 20:33 | 22.74951 | -54.56704 | 36053 ft | 512 kts | 211° |
| 2026-05-08 20:34 | 22.68671 | -54.60353 | 36054 ft | 513 kts | 211° |
| 2026-05-08 20:35 | 22.59231 | -54.65828 | 36055 ft | 513 kts | 211° |
| 2026-05-08 20:35 | 22.52982 | -54.69449 | 36055 ft | 513 kts | 211° |
| 2026-05-08 20:36 | 22.46682 | -54.73095 | 36042 ft | 513 kts | 211° |
| 2026-05-08 20:36 | 22.40417 | -54.76717 | 36046 ft | 513 kts | 211° |
| 2026-05-08 20:37 | 22.34134 | -54.80346 | 36051 ft | 513 kts | 211° |
| 2026-05-08 20:37 | 22.27861 | -54.83966 | 36052 ft | 513 kts | 211° |
| 2026-05-08 20:38 | 22.21566 | -54.87594 | 36049 ft | 513 kts | 210° |
| 2026-05-08 20:38 | 22.15278 | -54.91215 | 36046 ft | 513 kts | 210° |
| 2026-05-08 20:39 | 22.08983 | -54.94837 | 36063 ft | 513 kts | 210° |
| 2026-05-08 20:39 | 22.02687 | -54.98456 | 36050 ft | 513 kts | 210° |
| 2026-05-08 20:40 | 21.96648 | -55.02456 | 36056 ft | 509 kts | 218° |
| 2026-05-08 20:40 | 21.90919 | -55.06941 | 36054 ft | 510 kts | 219° |
| 2026-05-08 20:41 | 21.85183 | -55.11441 | 36045 ft | 510 kts | 218° |
| 2026-05-08 20:41 | 21.79424 | -55.15915 | 36048 ft | 510 kts | 218° |
| 2026-05-08 20:42 | 21.73676 | -55.20352 | 36044 ft | 510 kts | 218° |
| 2026-05-08 20:42 | 21.67893 | -55.24806 | 36044 ft | 511 kts | 218° |
| 2026-05-08 20:43 | 21.62140 | -55.29235 | 36034 ft | 511 kts | 218° |
| 2026-05-08 20:43 | 21.56357 | -55.33684 | 36045 ft | 511 kts | 218° |
| 2026-05-08 20:44 | 21.50570 | -55.38134 | 36048 ft | 511 kts | 218° |
| 2026-05-08 20:44 | 21.44809 | -55.42558 | 36045 ft | 511 kts | 218° |
| 2026-05-08 20:45 | 21.39000 | -55.47015 | 36042 ft | 512 kts | 218° |
| 2026-05-08 20:45 | 21.33238 | -55.51431 | 36044 ft | 512 kts | 218° |
| 2026-05-08 20:46 | 21.27437 | -55.55873 | 36031 ft | 512 kts | 217° |
| 2026-05-08 20:46 | 21.21622 | -55.60320 | 36044 ft | 512 kts | 217° |
| 2026-05-08 20:47 | 21.15852 | -55.64730 | 36048 ft | 512 kts | 217° |
| 2026-05-08 20:47 | 21.10047 | -55.69161 | 36043 ft | 512 kts | 217° |
| 2026-05-08 20:48 | 21.04235 | -55.73594 | 36037 ft | 513 kts | 217° |
| 2026-05-08 20:48 | 20.98419 | -55.78026 | 36040 ft | 513 kts | 217° |
| 2026-05-08 20:49 | 20.92631 | -55.82431 | 36045 ft | 513 kts | 217° |
| 2026-05-08 20:49 | 20.86794 | -55.86869 | 36041 ft | 513 kts | 217° |
| 2026-05-08 20:50 | 20.80970 | -55.91294 | 36038 ft | 513 kts | 217° |
| 2026-05-08 20:50 | 20.75181 | -55.95688 | 36041 ft | 513 kts | 217° |
| 2026-05-08 20:51 | 20.69384 | -56.00083 | 36039 ft | 513 kts | 217° |
| 2026-05-08 20:51 | 20.63592 | -56.04471 | 36036 ft | 513 kts | 217° |
| 2026-05-08 20:52 | 20.57766 | -56.08880 | 36038 ft | 513 kts | 217° |
| 2026-05-08 20:52 | 20.51979 | -56.13255 | 36040 ft | 513 kts | 217° |
| 2026-05-08 20:53 | 20.46147 | -56.17660 | 36042 ft | 513 kts | 217° |
| 2026-05-08 20:53 | 20.40301 | -56.22072 | 36036 ft | 514 kts | 217° |
| 2026-05-08 20:54 | 20.34460 | -56.26476 | 36034 ft | 514 kts | 217° |
| 2026-05-08 20:54 | 20.28649 | -56.30853 | 36033 ft | 514 kts | 217° |
| 2026-05-08 20:55 | 20.22795 | -56.35258 | 36035 ft | 515 kts | 217° |
| 2026-05-08 20:55 | 20.17925 | -56.38920 | 36036 ft | 515 kts | 217° |
| 2026-05-08 20:56 | 20.12056 | -56.43328 | 36032 ft | 515 kts | 217° |
| 2026-05-08 20:56 | 20.06196 | -56.47727 | 36034 ft | 515 kts | 217° |
| 2026-05-08 20:57 | 20.00360 | -56.52102 | 36032 ft | 515 kts | 217° |
| 2026-05-08 20:57 | 19.94491 | -56.56499 | 36033 ft | 515 kts | 217° |
| 2026-05-08 20:58 | 19.88695 | -56.60836 | 36023 ft | 516 kts | 217° |
| 2026-05-08 20:58 | 19.82788 | -56.65254 | 36031 ft | 516 kts | 217° |
| 2026-05-08 20:59 | 19.76938 | -56.69624 | 36030 ft | 516 kts | 217° |
| 2026-05-08 20:59 | 19.71052 | -56.74017 | 36025 ft | 516 kts | 217° |
| 2026-05-08 21:00 | 19.65167 | -56.78405 | 36027 ft | 516 kts | 217° |
| 2026-05-08 21:00 | 19.59323 | -56.82759 | 36033 ft | 516 kts | 217° |
| 2026-05-08 21:01 | 19.53436 | -56.87140 | 36019 ft | 516 kts | 217° |
| 2026-05-08 21:01 | 19.47560 | -56.91510 | 36027 ft | 516 kts | 217° |
| 2026-05-08 21:02 | 19.41683 | -56.95877 | 36022 ft | 516 kts | 217° |
| 2026-05-08 21:02 | 19.35836 | -57.00217 | 36028 ft | 516 kts | 217° |
| 2026-05-08 21:03 | 19.29963 | -57.04572 | 36019 ft | 515 kts | 217° |
| 2026-05-08 21:03 | 19.24089 | -57.08925 | 36019 ft | 514 kts | 217° |
| 2026-05-08 21:04 | 19.18218 | -57.13272 | 36010 ft | 513 kts | 217° |
| 2026-05-08 21:04 | 19.12399 | -57.17576 | 36030 ft | 513 kts | 217° |
| 2026-05-08 21:05 | 19.06532 | -57.21911 | 36025 ft | 514 kts | 217° |
| 2026-05-08 21:05 | 19.00659 | -57.26248 | 36021 ft | 514 kts | 217° |
| 2026-05-08 21:06 | 18.94839 | -57.30542 | 36024 ft | 514 kts | 216° |
| 2026-05-08 21:06 | 18.88959 | -57.34876 | 36020 ft | 514 kts | 216° |
| 2026-05-08 21:07 | 18.83097 | -57.39192 | 36010 ft | 513 kts | 216° |
| 2026-05-08 21:07 | 18.77275 | -57.43476 | 36014 ft | 512 kts | 216° |
| 2026-05-08 21:08 | 18.71409 | -57.47789 | 36016 ft | 512 kts | 216° |
| 2026-05-08 21:08 | 18.65540 | -57.52101 | 36017 ft | 512 kts | 216° |
| 2026-05-08 21:09 | 18.59723 | -57.56370 | 36026 ft | 512 kts | 216° |
| 2026-05-08 21:09 | 18.53854 | -57.60673 | 36019 ft | 511 kts | 216° |
| 2026-05-08 21:10 | 18.48047 | -57.64927 | 36018 ft | 510 kts | 216° |
| 2026-05-08 21:10 | 18.42217 | -57.69195 | 36012 ft | 511 kts | 216° |
| 2026-05-08 21:11 | 18.36412 | -57.73442 | 36020 ft | 511 kts | 216° |
| 2026-05-08 21:11 | 18.30558 | -57.77721 | 36021 ft | 513 kts | 216° |
| 2026-05-08 21:12 | 18.24682 | -57.82011 | 36013 ft | 514 kts | 216° |
| 2026-05-08 21:12 | 18.18800 | -57.86303 | 36020 ft | 515 kts | 216° |
| 2026-05-08 21:13 | 18.12903 | -57.90603 | 36009 ft | 515 kts | 216° |
| 2026-05-08 21:13 | 18.07021 | -57.94888 | 36007 ft | 514 kts | 216° |
| 2026-05-08 21:14 | 18.01190 | -57.99181 | 36005 ft | 513 kts | 219° |
| 2026-05-08 21:14 | 17.95919 | -58.04192 | 36009 ft | 510 kts | 228° |
| 2026-05-08 21:15 | 17.90980 | -58.09561 | 36014 ft | 510 kts | 228° |
| 2026-05-08 21:15 | 17.86067 | -58.14881 | 36021 ft | 510 kts | 227° |
| 2026-05-08 21:16 | 17.81093 | -58.20211 | 35999 ft | 509 kts | 227° |
| 2026-05-08 21:16 | 17.76117 | -58.25518 | 36010 ft | 509 kts | 227° |
| 2026-05-08 21:17 | 17.71167 | -58.30790 | 36006 ft | 510 kts | 227° |
| 2026-05-08 21:17 | 17.66193 | -58.36086 | 36008 ft | 510 kts | 227° |
| 2026-05-08 21:18 | 17.61200 | -58.41399 | 36020 ft | 510 kts | 227° |
| 2026-05-08 21:18 | 17.56242 | -58.46671 | 36007 ft | 510 kts | 227° |
| 2026-05-08 21:19 | 17.51248 | -58.51977 | 36012 ft | 510 kts | 227° |
| 2026-05-08 21:19 | 17.46294 | -58.57237 | 35997 ft | 510 kts | 227° |
| 2026-05-08 21:20 | 17.41299 | -58.62535 | 36011 ft | 511 kts | 227° |
| 2026-05-08 21:20 | 17.36286 | -58.67848 | 36017 ft | 511 kts | 227° |
| 2026-05-08 21:21 | 17.31324 | -58.73102 | 35995 ft | 510 kts | 227° |
| 2026-05-08 21:21 | 17.26321 | -58.78396 | 35991 ft | 510 kts | 227° |
| 2026-05-08 21:22 | 17.21338 | -58.83663 | 36006 ft | 509 kts | 227° |
| 2026-05-08 21:22 | 17.16396 | -58.88884 | 36011 ft | 509 kts | 227° |
| 2026-05-08 21:23 | 17.11392 | -58.94167 | 36007 ft | 511 kts | 227° |
| 2026-05-08 21:23 | 17.06379 | -58.99454 | 35989 ft | 512 kts | 227° |
| 2026-05-08 21:24 | 17.01362 | -59.04740 | 35979 ft | 512 kts | 227° |
| 2026-05-08 21:24 | 16.96348 | -59.10020 | 36000 ft | 512 kts | 227° |
| 2026-05-08 21:25 | 16.91366 | -59.15261 | 35996 ft | 512 kts | 227° |
| 2026-05-08 21:25 | 16.86342 | -59.20542 | 35998 ft | 511 kts | 227° |
| 2026-05-08 21:26 | 16.81329 | -59.25808 | 35993 ft | 511 kts | 227° |
| 2026-05-08 21:26 | 16.76314 | -59.31072 | 35995 ft | 510 kts | 227° |
| 2026-05-08 21:27 | 16.71338 | -59.36291 | 35989 ft | 510 kts | 227° |
| 2026-05-08 21:27 | 16.66320 | -59.41550 | 35997 ft | 511 kts | 227° |
| 2026-05-08 21:28 | 16.61304 | -59.46801 | 35991 ft | 511 kts | 227° |
| 2026-05-08 21:28 | 16.56298 | -59.52040 | 35992 ft | 511 kts | 227° |
| 2026-05-08 21:29 | 16.51269 | -59.57297 | 35988 ft | 511 kts | 227° |
| 2026-05-08 21:29 | 16.46271 | -59.62519 | 35977 ft | 512 kts | 227° |
| 2026-05-08 21:30 | 16.41232 | -59.67778 | 35987 ft | 512 kts | 227° |
| 2026-05-08 21:30 | 16.36206 | -59.73021 | 35987 ft | 512 kts | 227° |
| 2026-05-08 21:31 | 16.31191 | -59.78248 | 35994 ft | 512 kts | 226° |
| 2026-05-08 21:31 | 16.26155 | -59.83493 | 35984 ft | 511 kts | 226° |
| 2026-05-08 21:32 | 16.21129 | -59.88723 | 35977 ft | 510 kts | 226° |
| 2026-05-08 21:32 | 16.16101 | -59.93952 | 35627 ft | 518 kts | 226° |
| 2026-05-08 21:32 | 16.13548 | -59.96606 | 35252 ft | 519 kts | 226° |
| 2026-05-08 21:33 | 16.10992 | -59.99262 | 34916 ft | 520 kts | 227° |
| 2026-05-08 21:33 | 16.08457 | -60.01894 | 34582 ft | 520 kts | 226° |
| 2026-05-08 21:33 | 16.05909 | -60.04540 | 34256 ft | 519 kts | 226° |
| 2026-05-08 21:33 | 16.03354 | -60.07191 | 33913 ft | 519 kts | 226° |
| 2026-05-08 21:34 | 16.00795 | -60.09845 | 33513 ft | 519 kts | 226° |
| 2026-05-08 21:34 | 15.98238 | -60.12498 | 33138 ft | 519 kts | 226° |
| 2026-05-08 21:34 | 15.95677 | -60.15153 | 32761 ft | 522 kts | 226° |
| 2026-05-08 21:34 | 15.93086 | -60.17835 | 32402 ft | 527 kts | 225° |
| 2026-05-08 21:35 | 15.90214 | -60.20267 | 31998 ft | 538 kts | 211° |
| 2026-05-08 21:35 | 15.86849 | -60.21827 | 31638 ft | 537 kts | 197° |
| 2026-05-08 21:35 | 15.83276 | -60.23009 | 31321 ft | 540 kts | 196° |
| 2026-05-08 21:35 | 15.79680 | -60.24193 | 30968 ft | 544 kts | 196° |
| 2026-05-08 21:36 | 15.76071 | -60.25408 | 30624 ft | 545 kts | 197° |
| 2026-05-08 21:36 | 15.72457 | -60.26660 | 30282 ft | 545 kts | 197° |
| 2026-05-08 21:36 | 15.68888 | -60.27925 | 29990 ft | 539 kts | 197° |
| 2026-05-08 21:37 | 15.61882 | -60.30449 | 29988 ft | 536 kts | 198° |
| 2026-05-08 21:37 | 15.58349 | -60.31725 | 29848 ft | 539 kts | 198° |
| 2026-05-08 21:37 | 15.54809 | -60.33001 | 29434 ft | 538 kts | 198° |
| 2026-05-08 21:37 | 15.51282 | -60.34270 | 28957 ft | 532 kts | 197° |
| 2026-05-08 21:38 | 15.47807 | -60.35519 | 28458 ft | 523 kts | 197° |
| 2026-05-08 21:38 | 15.44387 | -60.36746 | 28004 ft | 515 kts | 197° |
| 2026-05-08 21:38 | 15.41022 | -60.37953 | 27543 ft | 507 kts | 197° |
| 2026-05-08 21:38 | 15.37744 | -60.39127 | 27096 ft | 500 kts | 197° |
| 2026-05-08 21:39 | 15.34480 | -60.40296 | 26653 ft | 493 kts | 197° |
| 2026-05-08 21:39 | 15.31257 | -60.41449 | 26216 ft | 486 kts | 197° |
| 2026-05-08 21:39 | 15.28068 | -60.42590 | 25787 ft | 480 kts | 196° |
| 2026-05-08 21:39 | 15.24955 | -60.43703 | 25364 ft | 474 kts | 196° |
| 2026-05-08 21:40 | 15.21849 | -60.44814 | 24951 ft | 470 kts | 196° |
| 2026-05-08 21:40 | 15.18771 | -60.45914 | 24545 ft | 465 kts | 195° |
| 2026-05-08 21:40 | 15.15720 | -60.47005 | 24143 ft | 461 kts | 195° |
| 2026-05-08 21:41 | 15.10701 | -60.48797 | 23464 ft | 455 kts | 195° |
| 2026-05-08 21:41 | 15.07736 | -60.49856 | 23004 ft | 451 kts | 195° |
| 2026-05-08 21:41 | 15.04784 | -60.50909 | 22552 ft | 447 kts | 195° |
| 2026-05-08 21:41 | 15.01847 | -60.51956 | 22093 ft | 443 kts | 196° |
| 2026-05-08 21:42 | 14.98935 | -60.52994 | 21636 ft | 440 kts | 196° |
| 2026-05-08 21:42 | 14.96092 | -60.54008 | 21210 ft | 436 kts | 196° |
| 2026-05-08 21:42 | 14.93225 | -60.55030 | 20775 ft | 432 kts | 197° |
| 2026-05-08 21:42 | 14.90419 | -60.56031 | 20325 ft | 420 kts | 197° |
| 2026-05-08 21:43 | 14.87692 | -60.57005 | 19881 ft | 406 kts | 197° |
| 2026-05-08 21:43 | 14.85090 | -60.57932 | 19462 ft | 394 kts | 198° |
| 2026-05-08 21:43 | 14.82526 | -60.58845 | 19036 ft | 383 kts | 198° |
| 2026-05-08 21:43 | 14.80034 | -60.59732 | 18629 ft | 373 kts | 198° |
| 2026-05-08 21:44 | 14.77623 | -60.60590 | 18206 ft | 365 kts | 198° |
| 2026-05-08 21:44 | 14.75247 | -60.61435 | 17745 ft | 360 kts | 199° |
| 2026-05-08 21:44 | 14.72890 | -60.62276 | 17286 ft | 354 kts | 200° |
| 2026-05-08 21:44 | 14.70728 | -60.63356 | 16834 ft | 347 kts | 211° |
| 2026-05-08 21:45 | 14.68680 | -60.64674 | 16419 ft | 347 kts | 213° |
| 2026-05-08 21:45 | 14.66658 | -60.66046 | 15993 ft | 348 kts | 214° |
| 2026-05-08 21:45 | 14.64635 | -60.67428 | 15575 ft | 348 kts | 214° |
| 2026-05-08 21:45 | 14.62616 | -60.68807 | 15165 ft | 347 kts | 214° |
| 2026-05-08 21:46 | 14.60616 | -60.70171 | 14750 ft | 347 kts | 214° |
| 2026-05-08 21:46 | 14.58593 | -60.71546 | 14340 ft | 347 kts | 214° |
| 2026-05-08 21:46 | 14.56598 | -60.72895 | 13996 ft | 345 kts | 214° |
| 2026-05-08 21:46 | 14.54605 | -60.74240 | 13719 ft | 338 kts | 216° |
| 2026-05-08 21:47 | 14.52938 | -60.75848 | 13390 ft | 326 kts | 236° |
| 2026-05-08 21:47 | 14.51733 | -60.77808 | 13132 ft | 319 kts | 243° |
| 2026-05-08 21:47 | 14.50663 | -60.79803 | 12853 ft | 314 kts | 244° |
| 2026-05-08 21:47 | 14.49649 | -60.81772 | 12593 ft | 310 kts | 244° |
| 2026-05-08 21:48 | 14.48666 | -60.83712 | 12330 ft | 307 kts | 244° |
| 2026-05-08 21:48 | 14.47681 | -60.85659 | 12085 ft | 305 kts | 244° |
| 2026-05-08 21:48 | 14.46696 | -60.87608 | 11846 ft | 307 kts | 244° |
| 2026-05-08 21:48 | 14.45707 | -60.89578 | 11592 ft | 311 kts | 244° |
| 2026-05-08 21:49 | 14.44744 | -60.91525 | 11317 ft | 312 kts | 245° |
| 2026-05-08 21:49 | 14.43767 | -60.93531 | 11038 ft | 310 kts | 249° |
| 2026-05-08 21:49 | 14.43169 | -60.95639 | 10743 ft | 305 kts | 261° |
| 2026-05-08 21:49 | 14.42836 | -60.97783 | 10471 ft | 301 kts | 264° |
| 2026-05-08 21:50 | 14.42558 | -60.99913 | 10189 ft | 298 kts | 264° |
| 2026-05-08 21:50 | 14.42301 | -61.02013 | 9898 ft | 290 kts | 264° |
| 2026-05-08 21:50 | 14.42052 | -61.04070 | 9417 ft | 286 kts | 264° |
| 2026-05-08 21:50 | 14.41812 | -61.06071 | 8916 ft | 284 kts | 265° |
| 2026-05-08 21:51 | 14.41565 | -61.08092 | 8422 ft | 281 kts | 264° |
| 2026-05-08 21:51 | 14.41324 | -61.10087 | 7936 ft | 279 kts | 264° |
| 2026-05-08 21:51 | 14.41097 | -61.12066 | 7462 ft | 276 kts | 264° |
| 2026-05-08 21:51 | 14.40879 | -61.14028 | 6990 ft | 274 kts | 264° |
| 2026-05-08 21:52 | 14.40672 | -61.15956 | 6526 ft | 273 kts | 264° |
| 2026-05-08 21:52 | 14.40659 | -61.17896 | 6018 ft | 270 kts | 283° |
| 2026-05-08 21:52 | 14.41184 | -61.19737 | 5642 ft | 268 kts | 289° |
| 2026-05-08 21:52 | 14.41772 | -61.21559 | 5263 ft | 265 kts | 294° |
| 2026-05-08 21:53 | 14.42788 | -61.23090 | 5009 ft | 256 kts | 323° |
| 2026-05-08 21:53 | 14.44326 | -61.23868 | 4749 ft | 246 kts | 353° |
| 2026-05-08 21:53 | 14.46000 | -61.23779 | 4500 ft | 239 kts | 15° |
| 2026-05-08 21:53 | 14.47597 | -61.23325 | 4292 ft | 239 kts | 19° |
| 2026-05-08 21:54 | 14.49197 | -61.22824 | 3939 ft | 241 kts | 19° |
| 2026-05-08 21:54 | 14.50809 | -61.22306 | 3570 ft | 243 kts | 19° |
| 2026-05-08 21:54 | 14.52426 | -61.21783 | 3234 ft | 245 kts | 20° |
| 2026-05-08 21:54 | 14.54018 | -61.21240 | 2905 ft | 240 kts | 27° |
| 2026-05-08 21:55 | 14.55272 | -61.20183 | 2601 ft | 232 kts | 59° |
| 2026-05-08 21:55 | 14.55846 | -61.18659 | 2312 ft | 225 kts | 75° |
| 2026-05-08 21:55 | 14.56240 | -61.17106 | 2090 ft | 220 kts | 78° |
| 2026-05-08 21:56 | 14.56762 | -61.14171 | 2040 ft | 200 kts | 80° |
| 2026-05-08 21:56 | 14.56995 | -61.12781 | 1992 ft | 191 kts | 79° |
| 2026-05-08 21:56 | 14.57217 | -61.11469 | 1812 ft | 184 kts | 79° |
| 2026-05-08 21:56 | 14.57431 | -61.10207 | 1587 ft | 176 kts | 80° |
| 2026-05-08 21:57 | 14.57644 | -61.08951 | 1364 ft | 178 kts | 79° |
| 2026-05-08 21:57 | 14.57850 | -61.07727 | 1151 ft | 169 kts | 78° |
| 2026-05-08 21:57 | 14.58047 | -61.06573 | 915 ft | 155 kts | 79° |
| 2026-05-08 21:57 | 14.58222 | -61.05540 | 758 ft | 144 kts | 79° |
| 2026-05-08 21:58 | 14.58393 | -61.04533 | 563 ft | 142 kts | 78° |
| 2026-05-08 21:58 | 14.58561 | -61.03558 | 369 ft | 135 kts | 78° |
| 2026-05-08 21:58 | 14.58725 | -61.02629 | 199 ft | 130 kts | 81° |
| 2026-05-08 21:58 | 14.58867 | -61.01713 | 60 ft | 131 kts | 81° |
| 2026-05-08 21:59 | 14.59016 | -61.00847 | 28 ft | 107 kts | 80° |
| 2026-05-08 21:59 | 14.59113 | -61.00278 | 21 ft | 54 kts | 80° |
| 2026-05-08 21:59 | 14.59146 | -61.00079 | 24 ft | 11 kts | 80° |
| 2026-05-08 21:59 | 14.59170 | -61.00025 | 28 ft | 6 kts | 27° |
| 2026-05-08 22:00 | 14.59212 | -61.00026 | 26 ft | 6 kts | 353° |
| 2026-05-08 22:00 | 14.59254 | -61.00033 | 28 ft | 6 kts | 351° |
| 2026-05-08 22:00 | 14.59297 | -61.00040 | 26 ft | 6 kts | 351° |
| 2026-05-08 22:00 | 14.59342 | -61.00049 | 28 ft | 5 kts | 338° |
| 2026-05-08 22:01 | 14.59374 | -61.00062 | 28 ft | 6 kts | 350° |
| 2026-05-08 22:01 | 14.59404 | -61.00057 | 24 ft | 3 kts | 15° |
| 2026-05-08 22:01 | 14.59429 | -61.00050 | 24 ft | 4 kts | 18° |
| 2026-05-08 22:01 | 14.59440 | -61.00046 | 25 ft | 0 kts | 19° |
| 2026-05-08 22:02 | 14.59445 | -61.00044 | 26 ft | 2 kts | 19° |
| 2026-05-08 22:02 | 14.59449 | -61.00043 | 25 ft | 0 kts | 19° |